Softwaredownloads

Ansicht
Bestell-Nr.
Artikel-Nr. Beschreibung
Software Version
Datum Info
1 8300-0-0353 83221AP-611 ABB-free@homeTouch 7" - Innenstation Video mit 17,8 cm (7") Touch-Display Firmware: Busch-free@homePanel 7" 1.18 03.02.2017
2 8300-0-0354 83221AP-625 ABB-free@homeTouch 7" - Innenstation Video mit 17,8 cm (7") Touch-Display Firmware: Busch-free@homePanel 7" 1.18 03.02.2017
3 8300-0-0004 83220 AP-624 Busch-WelcomePanel® - Innenstation Video mit 17,8 cm (7") Touch-Display Firmware 2.24 03.02.2017
4 8300-0-0005 83220 AP-681 Busch-WelcomePanel® - Innenstation Video mit 17,8 cm (7") Touch-Display Firmware 2.24 03.02.2017
5 8300-0-0006 83220 AP-683 Busch-WelcomePanel® - Innenstation Video mit 17,8 cm (7") Touch-Display Firmware 2.24 03.02.2017
6 6132-0-0399 6131/50-24-500 Busch-Präsenzmelder Corridor KNX - 30 Meter ETS4/ETS5 Applikation 3.0 02.02.2017
7 6132-0-0400 6131/50-183-500 Busch-Präsenzmelder Corridor KNX - 30 Meter ETS4/ETS5 Applikation 3.0 02.02.2017
8 6132-0-0413 6131/51-24-500 Busch-Präsenzmelder Corridor Premium KNX - 30 Meter ETS4/ETS5 Applikation 3.0 02.02.2017
9 6132-0-0414 6131/51-183-500 Busch-Präsenzmelder Corridor Premium KNX - 30 Meter ETS4/ETS5 Applikation 3.0 02.02.2017
10 8136-0-0024 8136/09-811-500 Busch-ComfortPanel - Haussteuerung, Infotainment, Entertainment Zusatzsoftware: IP-Project 3 1.3 31.01.2017 Info
11 8136-0-0024 8136/09-811-500 Busch-ComfortPanel - Haussteuerung, Infotainment, Entertainment Firmware: Busch-ComfortPanel® 3.0 Firmware 1.3 31.01.2017 Info
12 8136-0-0024 8136/09-811-500 Busch-ComfortPanel - Haussteuerung, Infotainment, Entertainment Zusatzsoftware: ComfortPanel 3.0 Miele PlugIn 4.0 31.01.2017
13 8136-0-0024 8136/09-811-500 Busch-ComfortPanel - Haussteuerung, Infotainment, Entertainment Zusatzsoftware: ComfortPanel 3.0 Philips Hue PlugIn 1.0 31.01.2017
14 8136-0-0024 8136/09-811-500 Busch-ComfortPanel - Haussteuerung, Infotainment, Entertainment Zusatzsoftware: ComfortPanel 3.0 Sonos PlugIn 1.0 31.01.2017
15 8136-0-0026 8136/09-825-500 Busch-ComfortPanel - Haussteuerung, Infotainment, Entertainment Zusatzsoftware: IP-Project 3 1.3 31.01.2017 Info
16 8136-0-0026 8136/09-825-500 Busch-ComfortPanel - Haussteuerung, Infotainment, Entertainment Firmware: Busch-ComfortPanel® 3.0 Firmware 1.3 31.01.2017 Info
17 8136-0-0026 8136/09-825-500 Busch-ComfortPanel - Haussteuerung, Infotainment, Entertainment Zusatzsoftware: ComfortPanel 3.0 Miele PlugIn 4.0 31.01.2017
18 8136-0-0026 8136/09-825-500 Busch-ComfortPanel - Haussteuerung, Infotainment, Entertainment Zusatzsoftware: ComfortPanel 3.0 Philips Hue PlugIn 1.0 31.01.2017
19 8136-0-0026 8136/09-825-500 Busch-ComfortPanel - Haussteuerung, Infotainment, Entertainment Zusatzsoftware: ComfortPanel 3.0 Sonos PlugIn 1.0 31.01.2017
20 8136-0-0028 8136/12-811-500 Busch-ComfortPanel® 12.1" - Haussteuerung, Infotainment, Entertainment Zusatzsoftware: IP-Project 3 1.3 31.01.2017 Info
21 8136-0-0028 8136/12-811-500 Busch-ComfortPanel® 12.1" - Haussteuerung, Infotainment, Entertainment Firmware: Busch-ComfortPanel® 3.0 Firmware 1.3 31.01.2017 Info
22 8136-0-0028 8136/12-811-500 Busch-ComfortPanel® 12.1" - Haussteuerung, Infotainment, Entertainment Zusatzsoftware: ComfortPanel 3.0 Miele PlugIn 4.0 31.01.2017
23 8136-0-0028 8136/12-811-500 Busch-ComfortPanel® 12.1" - Haussteuerung, Infotainment, Entertainment Zusatzsoftware: ComfortPanel 3.0 Philips Hue PlugIn 1.0 31.01.2017
24 8136-0-0028 8136/12-811-500 Busch-ComfortPanel® 12.1" - Haussteuerung, Infotainment, Entertainment Zusatzsoftware: ComfortPanel 3.0 Sonos PlugIn 1.0 31.01.2017
25 8136-0-0030 8136/12-825-500 Busch-ComfortPanel® 12.1" - Haussteuerung, Infotainment, Entertainment Zusatzsoftware: IP-Project 3 1.3 31.01.2017 Info
26 8136-0-0030 8136/12-825-500 Busch-ComfortPanel® 12.1" - Haussteuerung, Infotainment, Entertainment Firmware: Busch-ComfortPanel® 3.0 Firmware 1.3 31.01.2017 Info
27 8136-0-0030 8136/12-825-500 Busch-ComfortPanel® 12.1" - Haussteuerung, Infotainment, Entertainment Zusatzsoftware: ComfortPanel 3.0 Miele PlugIn 4.0 31.01.2017
28 8136-0-0030 8136/12-825-500 Busch-ComfortPanel® 12.1" - Haussteuerung, Infotainment, Entertainment Zusatzsoftware: ComfortPanel 3.0 Philips Hue PlugIn 1.0 31.01.2017
29 8136-0-0030 8136/12-825-500 Busch-ComfortPanel® 12.1" - Haussteuerung, Infotainment, Entertainment Zusatzsoftware: ComfortPanel 3.0 Sonos PlugIn 1.0 31.01.2017
30 6220-0-0031 6200 AP System Access Point - for ABB-free@home® Firmware: System Access Point 2.1.1 06.01.2017
31 6220-0-0031 6200 AP System Access Point - for ABB-free@home® Release Notes 2.1.1 06.01.2017
32 6200-0-0071 6200 AP-101 System Access Point - for ABB-free@home® Firmware: System Access Point 2.1.1 06.01.2017
33 6200-0-0071 6200 AP-101 System Access Point - for ABB-free@home® Release Notes 2.1.1 06.01.2017
34 6134-0-0315 6109/18-500 Raumtemperaturregler mit Universaleingang 5-fach - Heiz-/Kühlbetrieb ETS4/ETS5 Applikation 1.0 12.12.2016
35 6134-0-0317 6109/28-500 Raumtemperaturregler mit CO2/Feuchte-Sensor - Heiz-/Kühlbetrieb ETS4/ETS5 Applikation 1.0 12.12.2016
36 6151-0-0254 6155/30-500 LED-Dimmer Konstantspannung - 1-4-fach ETS4/ETS5 Applikation 1.0 30.08.2016
37 6151-0-0256 6155/40-500 LED-Dimmer Konstantspannung mit integriertem Netzteil. - 1-4-fach ETS4/ETS5 Applikation 1.0 30.08.2016
38 6134-0-0331 6128/28-81-500 Bedienelement 2/4-fach, mit RTR future® linear - Multifunktion/Farbkonzept ETS3 Applikation 1.0 18.08.2016
39 6134-0-0331 6128/28-81-500 Bedienelement 2/4-fach, mit RTR future® linear - Multifunktion/Farbkonzept ETS3 Applikation 1.0 18.08.2016
40 6134-0-0332 6128/28-82-500 Bedienelement 2/4-fach, mit RTR future® linear - Multifunktion/Farbkonzept ETS3 Applikation 1.0 18.08.2016
41 6134-0-0332 6128/28-82-500 Bedienelement 2/4-fach, mit RTR future® linear - Multifunktion/Farbkonzept ETS3 Applikation 1.0 18.08.2016
42 6134-0-0333 6128/28-83-500 Bedienelement 2/4-fach, mit RTR future® linear - Multifunktion/Farbkonzept ETS3 Applikation 1.0 18.08.2016
43 6134-0-0333 6128/28-83-500 Bedienelement 2/4-fach, mit RTR future® linear - Multifunktion/Farbkonzept ETS3 Applikation 1.0 18.08.2016
44 6134-0-0334 6128/28-84-500 Bedienelement 2/4-fach, mit RTR future® linear - Multifunktion/Farbkonzept ETS3 Applikation 1.0 18.08.2016
45 6134-0-0334 6128/28-84-500 Bedienelement 2/4-fach, mit RTR future® linear - Multifunktion/Farbkonzept ETS3 Applikation 1.0 18.08.2016
46 6134-0-0338 6128/28-884-500 Bedienelement 2/4-fach, mit RTR future® linear - Multifunktion/Farbkonzept ETS3 Applikation 1.0 18.08.2016
47 6134-0-0338 6128/28-884-500 Bedienelement 2/4-fach, mit RTR future® linear - Multifunktion/Farbkonzept ETS3 Applikation 1.0 18.08.2016
48 6134-0-0339 6128/28-885-500 Bedienelement 2/4-fach, mit RTR future® linear - Multifunktion/Farbkonzept ETS3 Applikation 1.0 18.08.2016
49 6134-0-0339 6128/28-885-500 Bedienelement 2/4-fach, mit RTR future® linear - Multifunktion/Farbkonzept ETS3 Applikation 1.0 18.08.2016
50 6134-0-0336 6128/28-803-500 Bedienelement 2/4-fach, mit RTR solo® - Multifunktion/Farbkonzept ETS3 Applikation 1.0 18.08.2016
51 6134-0-0336 6128/28-803-500 Bedienelement 2/4-fach, mit RTR solo® - Multifunktion/Farbkonzept ETS3 Applikation 1.0 18.08.2016
52 6134-0-0340 6128/28-896-500 Bedienelement 2/4-fach, mit RTR Busch-axcent® - Multifunktion/Farbkonzept ETS3 Applikation 1.0 18.08.2016
53 6134-0-0340 6128/28-896-500 Bedienelement 2/4-fach, mit RTR Busch-axcent® - Multifunktion/Farbkonzept ETS3 Applikation 1.0 18.08.2016
54 6134-0-0335 6128/28-866-500 Bedienelement 2/4-fach, mit RTR pur edelstahl - Multifunktion/Farbkonzept ETS3 Applikation 1.0 18.08.2016
55 6134-0-0335 6128/28-866-500 Bedienelement 2/4-fach, mit RTR pur edelstahl - Multifunktion/Farbkonzept ETS3 Applikation 1.0 18.08.2016
56 6132-0-0345 6131/21-183-500 Busch-Präsenzmelder Mini Premium KNX - 8 Meter ETS4/ETS5 Applikation 3.2 20.07.2016 Info
57 6132-0-0344 6131/21-24-500 Busch-Präsenzmelder Mini Premium KNX - 8 Meter ETS4/ETS5 Applikation 3.2 20.07.2016 Info
58 6132-0-0349 6131/31-183-500 Busch-Präsenzmelder Premium KNX - 12 Meter ETS4/ETS5 Applikation 3.2 20.07.2016 Info
59 6132-0-0348 6131/31-24-500 Busch-Präsenzmelder Premium KNX - 12 Meter ETS4/ETS5 Applikation 3.2 20.07.2016 Info
60 6132-0-0343 6131/20-183-500 Busch-Präsenzmelder Mini KNX - 8 Meter Firmware 1.4 06.07.2016
61 6132-0-0342 6131/20-24-500 Busch-Präsenzmelder Mini KNX - 8 Meter Firmware 1.4 06.07.2016
62 6132-0-0345 6131/21-183-500 Busch-Präsenzmelder Mini Premium KNX - 8 Meter Firmware 1.4 06.07.2016
63 6132-0-0344 6131/21-24-500 Busch-Präsenzmelder Mini Premium KNX - 8 Meter Firmware 1.4 06.07.2016
64 6132-0-0347 6131/30-183-500 Busch-Präsenzmelder KNX - 12 Meter Firmware 1.4 06.07.2016
65 6132-0-0346 6131/30-24-500 Busch-Präsenzmelder KNX - 12 Meter Firmware 1.4 06.07.2016
66 6132-0-0349 6131/31-183-500 Busch-Präsenzmelder Premium KNX - 12 Meter Firmware 1.4 06.07.2016
67 6132-0-0348 6131/31-24-500 Busch-Präsenzmelder Premium KNX - 12 Meter Firmware 1.4 06.07.2016
68 6132-0-0350 6131/40-24-500 Busch-Wächter® Sky KNX - 24 Meter Firmware 1.4 06.07.2016
69 6115-0-0216 6125/02-81-500 Bedienelement, 1/2-fach - Multifunktion/Farbkonzept Zusatzsoftware: PowerTool 05.07.2016 Info
70 6115-0-0216 6125/02-81-500 Bedienelement, 1/2-fach - Multifunktion/Farbkonzept ETS4/ETS5 Applikation 1.0 05.07.2016 Info
71 6115-0-0217 6125/02-82-500 Bedienelement, 1/2-fach - Multifunktion/Farbkonzept Zusatzsoftware: PowerTool 05.07.2016 Info
72 6115-0-0217 6125/02-82-500 Bedienelement, 1/2-fach - Multifunktion/Farbkonzept ETS4/ETS5 Applikation 1.0 05.07.2016 Info
73 6116-0-0206 6126/02-81-500 Bedienelement, 2/4-fach - Multifunktion/Farbkonzept Zusatzsoftware: PowerTool 05.07.2016 Info
74 6116-0-0206 6126/02-81-500 Bedienelement, 2/4-fach - Multifunktion/Farbkonzept ETS4/ETS5 Applikation 1.0 05.07.2016 Info
75 6116-0-0207 6126/02-82-500 Bedienelement, 2/4-fach - Multifunktion/Farbkonzept Zusatzsoftware: PowerTool 05.07.2016 Info
76 6116-0-0207 6126/02-82-500 Bedienelement, 2/4-fach - Multifunktion/Farbkonzept ETS4/ETS5 Applikation 1.0 05.07.2016 Info
77 6134-0-0284 6128/01-81-500 Bedienelement 2/4-fach, mit RTR - Multifunktion/Farbkonzept Zusatzsoftware: PowerTool 05.07.2016 Info
78 6134-0-0285 6128/01-82-500 Bedienelement 2/4-fach, mit RTR - Multifunktion/Farbkonzept Zusatzsoftware: PowerTool 05.07.2016 Info
79 6117-0-0232 6127/02-81-500 Bedienelement, 4/8-fach - Multifunktion/Farbkonzept Zusatzsoftware: PowerTool 05.07.2016 Info
80 6117-0-0232 6127/02-81-500 Bedienelement, 4/8-fach - Multifunktion/Farbkonzept ETS4/ETS5 Applikation 1.0 05.07.2016 Info
81 6117-0-0233 6127/02-82-500 Bedienelement, 4/8-fach - Multifunktion/Farbkonzept Zusatzsoftware: PowerTool 05.07.2016 Info
82 6117-0-0233 6127/02-82-500 Bedienelement, 4/8-fach - Multifunktion/Farbkonzept ETS4/ETS5 Applikation 1.0 05.07.2016 Info
83 6132-0-0343 6131/20-183-500 Busch-Präsenzmelder Mini KNX - 8 Meter Zusatzsoftware 05.07.2016 Info
84 6132-0-0342 6131/20-24-500 Busch-Präsenzmelder Mini KNX - 8 Meter Zusatzsoftware 05.07.2016 Info
85 6132-0-0345 6131/21-183-500 Busch-Präsenzmelder Mini Premium KNX - 8 Meter Zusatzsoftware 05.07.2016 Info
86 6132-0-0344 6131/21-24-500 Busch-Präsenzmelder Mini Premium KNX - 8 Meter Zusatzsoftware 05.07.2016 Info
87 6132-0-0347 6131/30-183-500 Busch-Präsenzmelder KNX - 12 Meter Zusatzsoftware 05.07.2016 Info
88 6132-0-0346 6131/30-24-500 Busch-Präsenzmelder KNX - 12 Meter Zusatzsoftware 05.07.2016 Info
89 6132-0-0349 6131/31-183-500 Busch-Präsenzmelder Premium KNX - 12 Meter Zusatzsoftware 05.07.2016 Info
90 6132-0-0348 6131/31-24-500 Busch-Präsenzmelder Premium KNX - 12 Meter Zusatzsoftware 05.07.2016 Info
91 6132-0-0350 6131/40-24-500 Busch-Wächter® Sky KNX - 24 Meter Zusatzsoftware 05.07.2016 Info
92 6310-0-0133 6344-24G-101-500 8,89 cm TFT-Farbdisplay mit Drehbedienelement - Busch-priOn® Zusatzsoftware: PowerTool 05.07.2016 Info
93 6310-0-0133 6344-24G-101-500 8,89 cm TFT-Farbdisplay mit Drehbedienelement - Busch-priOn® ETS-Applikation für PowerTool 2.0 05.07.2016 Info
94 6310-0-0133 6344-24G-101-500 8,89 cm TFT-Farbdisplay mit Drehbedienelement - Busch-priOn® Firmware: Update Firmware 6344-xxx 0.1.6.11 05.07.2016 Info
95 6310-0-0174 6344-811-101-500 8,89 cm TFT-Farbdisplay mit Drehbedienelement - Busch-priOn® Zusatzsoftware: PowerTool 05.07.2016 Info
96 6310-0-0174 6344-811-101-500 8,89 cm TFT-Farbdisplay mit Drehbedienelement - Busch-priOn® ETS-Applikation für PowerTool 2.0 05.07.2016 Info
97 6310-0-0174 6344-811-101-500 8,89 cm TFT-Farbdisplay mit Drehbedienelement - Busch-priOn® Firmware: Update Firmware 6344-xxx 0.1.6.11 05.07.2016 Info
98 6310-0-0132 6344-825-101-500 8,89 cm TFT-Farbdisplay mit Drehbedienelement - Busch-priOn® Zusatzsoftware: PowerTool 05.07.2016 Info
99 6310-0-0132 6344-825-101-500 8,89 cm TFT-Farbdisplay mit Drehbedienelement - Busch-priOn® ETS-Applikation für PowerTool 2.0 05.07.2016 Info
100 6310-0-0132 6344-825-101-500 8,89 cm TFT-Farbdisplay mit Drehbedienelement - Busch-priOn® Firmware: Update Firmware 6344-xxx 0.1.6.11 05.07.2016 Info
101 6310-0-0130 6344-866-101-500 8,89 cm TFT-Farbdisplay mit Drehbedienelement - Busch-priOn® Zusatzsoftware: PowerTool 05.07.2016 Info
102 6310-0-0130 6344-866-101-500 8,89 cm TFT-Farbdisplay mit Drehbedienelement - Busch-priOn® ETS-Applikation für PowerTool 2.0 05.07.2016 Info
103 6310-0-0130 6344-866-101-500 8,89 cm TFT-Farbdisplay mit Drehbedienelement - Busch-priOn® Firmware: Update Firmware 6344-xxx 0.1.6.11 05.07.2016 Info
104 6310-0-0125 6342-24G-101-500 Bedienelement 3-fach - Busch-priOn® Zusatzsoftware: PowerTool 05.07.2016 Info
105 6310-0-0172 6342-811-101-500 Bedienelement 3-fach - Busch-priOn® Zusatzsoftware: PowerTool 05.07.2016 Info
106 6310-0-0124 6342-825-101-500 Bedienelement 3-fach - Busch-priOn® Zusatzsoftware: PowerTool 05.07.2016 Info
107 6310-0-0122 6342-866-101-500 Bedienelement 3-fach - Busch-priOn® Zusatzsoftware: PowerTool 05.07.2016 Info
108 6310-0-0109 6340-24G-101-500 Bedienelement 1-fach - Busch-priOn® Zusatzsoftware: PowerTool 05.07.2016 Info
109 6310-0-0168 6340-811-101-500 Bedienelement 1-fach - Busch-priOn® Zusatzsoftware: PowerTool 05.07.2016 Info
110 6310-0-0108 6340-825-101-500 Bedienelement 1-fach - Busch-priOn® Zusatzsoftware: PowerTool 05.07.2016 Info
111 6310-0-0106 6340-866-101-500 Bedienelement 1-fach - Busch-priOn® Zusatzsoftware: PowerTool 05.07.2016 Info
112 6310-0-0117 6341-24G-101-500 Drehbedienelement 1-fach - Busch-priOn® Zusatzsoftware: PowerTool 05.07.2016 Info
113 6310-0-0170 6341-811-101-500 Drehbedienelement 1-fach - Busch-priOn® Zusatzsoftware: PowerTool 05.07.2016 Info
114 6310-0-0116 6341-825-101-500 Drehbedienelement 1-fach - Busch-priOn® Zusatzsoftware: PowerTool 05.07.2016 Info
115 6310-0-0114 6341-866-101-500 Drehbedienelement 1-fach - Busch-priOn® Zusatzsoftware: PowerTool 05.07.2016 Info
116 6310-0-0081 6345-24G-101-500 Busch-Wächter® 180 UP - Busch-priOn® Zusatzsoftware: PowerTool 05.07.2016 Info
117 6310-0-0176 6345-811-101-500 Busch-Wächter® 180 UP - Busch-priOn® Zusatzsoftware: PowerTool 05.07.2016 Info
118 6310-0-0080 6345-825-101-500 Busch-Wächter® 180 UP - Busch-priOn® Zusatzsoftware: PowerTool 05.07.2016 Info
119 6310-0-0078 6345-866-101-500 Busch-Wächter® 180 UP - Busch-priOn® Zusatzsoftware: PowerTool 05.07.2016 Info
120 6310-0-0157 6350-825-101-500 Abschlussleiste oben mit IR-Empfänger und Näherungssensor - Busch-priOn® Zusatzsoftware: PowerTool 05.07.2016 Info
121 6310-0-0183 6351/08-825-500 Abschlussleiste oben mit Infodisplay, RTR, IR-Empfänger und Näherungssensor - Busch-priOn® Zusatzsoftware: PowerTool 05.07.2016 Info
122 6310-0-0183 6351/08-825-500 Abschlussleiste oben mit Infodisplay, RTR, IR-Empfänger und Näherungssensor - Busch-priOn® Firmware 1.2.04 05.07.2016 Info
123 6310-0-0147 6348-24G-101-500 Standardabschlussleiste oben - Busch-priOn® Zusatzsoftware: PowerTool 05.07.2016 Info
124 6310-0-0178 6348-811-101-500 Standardabschlussleiste oben - Busch-priOn® Zusatzsoftware: PowerTool 05.07.2016 Info
125 6310-0-0146 6348-825-101-500 Standardabschlussleiste oben - Busch-priOn® Zusatzsoftware: PowerTool 05.07.2016 Info
126 6310-0-0144 6348-860-101-500 Standardabschlussleiste oben - Busch-priOn® Zusatzsoftware: PowerTool 05.07.2016 Info
127 6310-0-0155 6349-24G-101-500 Standardabschlussleiste unten - Busch-priOn® Zusatzsoftware: PowerTool 05.07.2016 Info
128 6310-0-0180 6349-811-101-500 Standardabschlussleiste unten - Busch-priOn® Zusatzsoftware: PowerTool 05.07.2016 Info
129 6310-0-0154 6349-825-101-500 Standardabschlussleiste unten - Busch-priOn® Zusatzsoftware: PowerTool 05.07.2016 Info
130 6310-0-0152 6349-860-101-500 Standardabschlussleiste unten - Busch-priOn® Zusatzsoftware: PowerTool 05.07.2016 Info
131 6310-0-0135 6346/10-101-500 Grundträger, 1-fach - Busch-priOn® Zusatzsoftware: PowerTool 05.07.2016 Info
132 6310-0-0137 6346/11-101-500 Grundträger, 2-fach - Busch-priOn® Zusatzsoftware: PowerTool 05.07.2016 Info
133 6310-0-0139 6346/12-101-500 Grundträger, 3-fach - Busch-priOn® Zusatzsoftware: PowerTool 05.07.2016 Info
134 6310-0-0165 6352-24G-101-500 Abschlussleiste unten mit Temperaturfühler - Busch-priOn® Zusatzsoftware: PowerTool 05.07.2016 Info
135 6310-0-0182 6352-811-101-500 Abschlussleiste unten mit Temperaturfühler - Busch-priOn® Zusatzsoftware: PowerTool 05.07.2016 Info
136 6310-0-0164 6352-825-101-500 Abschlussleiste unten mit Temperaturfühler - Busch-priOn® Zusatzsoftware: PowerTool 05.07.2016 Info
137 6310-0-0162 6352-860-101-500 Abschlussleiste unten mit Temperaturfühler - Busch-priOn® Zusatzsoftware: PowerTool 05.07.2016 Info
138 6310-0-0097 6354 U-500 Schaltaktor 1-fach, UP - Busch-priOn® Zusatzsoftware: PowerTool 05.07.2016 Info
139 6310-0-0098 6355 U-500 Universal-Dimmaktor 1-fach, UP - Busch-priOn® Zusatzsoftware: PowerTool 05.07.2016 Info
140 6310-0-0099 6356 U-500 Serien-/Jalousieaktor 2/1-fach, UP - Busch-priOn® Zusatzsoftware: PowerTool 05.07.2016 Info
141 6310-0-0093 6353/20-860-500 Beschriftungssymbol Beleuchtung Zusatzsoftware: PowerTool 05.07.2016 Info
142 6310-0-0094 6353/30-860-500 Beschriftungssymbol Jalousie Zusatzsoftware: PowerTool 05.07.2016 Info
143 6310-0-0095 6353/40-860-500 Beschriftungssymbol Raumtemperatur Zusatzsoftware: PowerTool 05.07.2016 Info
144 6310-0-0096 6353/50-860-500 Beschriftungssymbol Szene Zusatzsoftware: PowerTool 05.07.2016 Info
145 6115-0-0218 6125/02-83-500 Bedienelement, 1/2-fach future® linear - Multifunktion/Farbkonzept Zusatzsoftware: PowerTool 05.07.2016 Info
146 6115-0-0218 6125/02-83-500 Bedienelement, 1/2-fach future® linear - Multifunktion/Farbkonzept ETS4/ETS5 Applikation 1.0 05.07.2016 Info
147 6115-0-0219 6125/02-84-500 Bedienelement, 1/2-fach future® linear - Multifunktion/Farbkonzept Zusatzsoftware: PowerTool 05.07.2016 Info
148 6115-0-0219 6125/02-84-500 Bedienelement, 1/2-fach future® linear - Multifunktion/Farbkonzept ETS4/ETS5 Applikation 1.0 05.07.2016 Info
149 6115-0-0226 6125/02-884-500 Bedienelement, 1/2-fach future® linear - Multifunktion/Farbkonzept Zusatzsoftware: PowerTool 05.07.2016 Info
150 6115-0-0226 6125/02-884-500 Bedienelement, 1/2-fach future® linear - Multifunktion/Farbkonzept ETS4/ETS5 Applikation 1.0 05.07.2016 Info
151 6115-0-0227 6125/02-885-500 Bedienelement, 1/2-fach future® linear - Multifunktion/Farbkonzept Zusatzsoftware: PowerTool 05.07.2016 Info
152 6115-0-0227 6125/02-885-500 Bedienelement, 1/2-fach future® linear - Multifunktion/Farbkonzept ETS4/ETS5 Applikation 1.0 05.07.2016 Info
153 6115-0-0224 6125/02-803-500 Bedienelement, 1/2-fach solo® - Multifunktion/Farbkonzept Zusatzsoftware: PowerTool 05.07.2016 Info
154 6115-0-0224 6125/02-803-500 Bedienelement, 1/2-fach solo® - Multifunktion/Farbkonzept ETS4/ETS5 Applikation 1.0 05.07.2016 Info
155 6115-0-0451 6125/02-896-500 Bedienelement, 1/2-fach Busch-axcent® - Multifunktion/Farbkonzept Zusatzsoftware: PowerTool 05.07.2016 Info
156 6115-0-0451 6125/02-896-500 Bedienelement, 1/2-fach Busch-axcent® - Multifunktion/Farbkonzept ETS4/ETS5 Applikation 1.0 05.07.2016 Info
157 6115-0-0223 6125/02-866-500 Bedienelement, 1/2-fach pur edelstahl - Multifunktion/Farbkonzept Zusatzsoftware: PowerTool 05.07.2016 Info
158 6115-0-0223 6125/02-866-500 Bedienelement, 1/2-fach pur edelstahl - Multifunktion/Farbkonzept ETS4/ETS5 Applikation 1.0 05.07.2016 Info
159 6116-0-0208 6126/02-83-500 Bedienelement, 2/4-fach future® linear - Multifunktion/Farbkonzept Zusatzsoftware: PowerTool 05.07.2016 Info
160 6116-0-0208 6126/02-83-500 Bedienelement, 2/4-fach future® linear - Multifunktion/Farbkonzept ETS4/ETS5 Applikation 1.0 05.07.2016 Info
161 6116-0-0209 6126/02-84-500 Bedienelement, 2/4-fach future® linear - Multifunktion/Farbkonzept Zusatzsoftware: PowerTool 05.07.2016 Info
162 6116-0-0209 6126/02-84-500 Bedienelement, 2/4-fach future® linear - Multifunktion/Farbkonzept ETS4/ETS5 Applikation 1.0 05.07.2016 Info
163 6116-0-0216 6126/02-884-500 Bedienelement, 2/4-fach future® linear - Multifunktion/Farbkonzept Zusatzsoftware: PowerTool 05.07.2016 Info
164 6116-0-0216 6126/02-884-500 Bedienelement, 2/4-fach future® linear - Multifunktion/Farbkonzept ETS4/ETS5 Applikation 1.0 05.07.2016 Info
165 6116-0-0217 6126/02-885-500 Bedienelement, 2/4-fach future® linear - Multifunktion/Farbkonzept Zusatzsoftware: PowerTool 05.07.2016 Info
166 6116-0-0217 6126/02-885-500 Bedienelement, 2/4-fach future® linear - Multifunktion/Farbkonzept ETS4/ETS5 Applikation 1.0 05.07.2016 Info
167 6116-0-0214 6126/02-803-500 Bedienelement, 2/4-fach solo® - Multifunktion/Farbkonzept Zusatzsoftware: PowerTool 05.07.2016 Info
168 6116-0-0214 6126/02-803-500 Bedienelement, 2/4-fach solo® - Multifunktion/Farbkonzept ETS4/ETS5 Applikation 1.0 05.07.2016 Info
169 6116-0-0226 6126/02-896-500 Bedienelement, 2/4-fach Busch-axcent® - Multifunktion/Farbkonzept Zusatzsoftware: PowerTool 05.07.2016 Info
170 6116-0-0226 6126/02-896-500 Bedienelement, 2/4-fach Busch-axcent® - Multifunktion/Farbkonzept ETS4/ETS5 Applikation 1.0 05.07.2016 Info
171 6116-0-0213 6126/02-866-500 Bedienelement, 2/4-fach pur edelstahl - Multifunktion/Farbkonzept Zusatzsoftware: PowerTool 05.07.2016 Info
172 6116-0-0213 6126/02-866-500 Bedienelement, 2/4-fach pur edelstahl - Multifunktion/Farbkonzept ETS4/ETS5 Applikation 1.0 05.07.2016 Info
173 6134-0-0286 6128/01-83-500 Bedienelement 2/4-fach, mit RTR future® linear - Multifunktion/Farbkonzept Zusatzsoftware: PowerTool 05.07.2016 Info
174 6134-0-0261 6128/01-84-500 Bedienelement 2/4-fach, mit RTR future® linear - Multifunktion/Farbkonzept Zusatzsoftware: PowerTool 05.07.2016 Info
175 6134-0-0293 6128/01-884-500 Bedienelement 2/4-fach, mit RTR future® linear - Multifunktion/Farbkonzept Zusatzsoftware: PowerTool 05.07.2016 Info
176 6134-0-0294 6128/01-885-500 Bedienelement 2/4-fach, mit RTR future® linear - Multifunktion/Farbkonzept Zusatzsoftware: PowerTool 05.07.2016 Info
177 6134-0-0291 6128/01-803-500 Bedienelement 2/4-fach, mit RTR solo® - Multifunktion/Farbkonzept Zusatzsoftware: PowerTool 05.07.2016 Info
178 6134-0-0306 6128/01-896-500 Bedienelement 2/4-fach, mit RTR Busch-axcent® - Multifunktion/Farbkonzept Zusatzsoftware: PowerTool 05.07.2016 Info
179 6134-0-0290 6128/01-866-500 Bedienelement 2/4-fach, mit RTR pur edelstahl - Multifunktion/Farbkonzept Zusatzsoftware: PowerTool 05.07.2016 Info
180 6135-0-0156 6129/01-81-500 Bedienelement 3/6-fach, mit IR-Schnittstelle future® linear - Multifunktion/Farbkonzept Zusatzsoftware: PowerTool 05.07.2016 Info
181 6135-0-0156 6129/01-81-500 Bedienelement 3/6-fach, mit IR-Schnittstelle future® linear - Multifunktion/Farbkonzept ETS4/ETS5 Applikation 1.0 05.07.2016 Info
182 6135-0-0157 6129/01-82-500 Bedienelement 3/6-fach, mit IR-Schnittstelle future® linear - Multifunktion/Farbkonzept Zusatzsoftware: PowerTool 05.07.2016 Info
183 6135-0-0157 6129/01-82-500 Bedienelement 3/6-fach, mit IR-Schnittstelle future® linear - Multifunktion/Farbkonzept ETS4/ETS5 Applikation 1.0 05.07.2016 Info
184 6135-0-0158 6129/01-83-500 Bedienelement 3/6-fach, mit IR-Schnittstelle future® linear - Multifunktion/Farbkonzept Zusatzsoftware: PowerTool 05.07.2016 Info
185 6135-0-0158 6129/01-83-500 Bedienelement 3/6-fach, mit IR-Schnittstelle future® linear - Multifunktion/Farbkonzept ETS4/ETS5 Applikation 1.0 05.07.2016 Info
186 6135-0-0146 6129/01-84-500 Bedienelement 3/6-fach, mit IR-Schnittstelle future® linear - Multifunktion/Farbkonzept Zusatzsoftware: PowerTool 05.07.2016 Info
187 6135-0-0146 6129/01-84-500 Bedienelement 3/6-fach, mit IR-Schnittstelle future® linear - Multifunktion/Farbkonzept ETS4/ETS5 Applikation 1.0 05.07.2016 Info
188 6135-0-0165 6129/01-884-500 Bedienelement 3/6-fach, mit IR-Schnittstelle future® linear - Multifunktion/Farbkonzept Zusatzsoftware: PowerTool 05.07.2016 Info
189 6135-0-0165 6129/01-884-500 Bedienelement 3/6-fach, mit IR-Schnittstelle future® linear - Multifunktion/Farbkonzept ETS4/ETS5 Applikation 1.0 05.07.2016 Info
190 6135-0-0166 6129/01-885-500 Bedienelement 3/6-fach, mit IR-Schnittstelle future® linear - Multifunktion/Farbkonzept Zusatzsoftware: PowerTool 05.07.2016 Info
191 6135-0-0166 6129/01-885-500 Bedienelement 3/6-fach, mit IR-Schnittstelle future® linear - Multifunktion/Farbkonzept ETS4/ETS5 Applikation 1.0 05.07.2016 Info
192 6135-0-0163 6129/01-803-500 Bedienelement 3/6-fach, mit IR-Schnittstelle solo® - Multifunktion/Farbkonzept Zusatzsoftware: PowerTool 05.07.2016 Info
193 6135-0-0163 6129/01-803-500 Bedienelement 3/6-fach, mit IR-Schnittstelle solo® - Multifunktion/Farbkonzept ETS4/ETS5 Applikation 1.0 05.07.2016 Info
194 6135-0-0170 6129/01-896-500 Bedienelement 3/6-fach, mit IR-Schnittstelle Busch-axcent® - Multifunktion/Farbkonzept Zusatzsoftware: PowerTool 05.07.2016 Info
195 6135-0-0170 6129/01-896-500 Bedienelement 3/6-fach, mit IR-Schnittstelle Busch-axcent® - Multifunktion/Farbkonzept ETS4/ETS5 Applikation 1.0 05.07.2016 Info
196 6135-0-0162 6129/01-866-500 Bedienelement 3/6-fach, mit IR-Schnittstelle pur edelstahl - Multifunktion/Farbkonzept Zusatzsoftware: PowerTool 05.07.2016 Info
197 6135-0-0162 6129/01-866-500 Bedienelement 3/6-fach, mit IR-Schnittstelle pur edelstahl - Multifunktion/Farbkonzept ETS4/ETS5 Applikation 1.0 05.07.2016 Info
198 6117-0-0234 6127/02-83-500 Bedienelement, 4/8-fach future® linear - Multifunktion/Farbkonzept Zusatzsoftware: PowerTool 05.07.2016 Info
199 6117-0-0234 6127/02-83-500 Bedienelement, 4/8-fach future® linear - Multifunktion/Farbkonzept ETS4/ETS5 Applikation 1.0 05.07.2016 Info
200 6117-0-0235 6127/02-84-500 Bedienelement, 4/8-fach future® linear - Multifunktion/Farbkonzept Zusatzsoftware: PowerTool 05.07.2016 Info
201 6117-0-0235 6127/02-84-500 Bedienelement, 4/8-fach future® linear - Multifunktion/Farbkonzept ETS4/ETS5 Applikation 1.0 05.07.2016 Info
202 6117-0-0242 6127/02-884-500 Bedienelement, 4/8-fach future® linear - Multifunktion/Farbkonzept Zusatzsoftware: PowerTool 05.07.2016 Info
203 6117-0-0242 6127/02-884-500 Bedienelement, 4/8-fach future® linear - Multifunktion/Farbkonzept ETS4/ETS5 Applikation 1.0 05.07.2016 Info
204 6117-0-0243 6127/02-885-500 Bedienelement, 4/8-fach future® linear - Multifunktion/Farbkonzept Zusatzsoftware: PowerTool 05.07.2016 Info
205 6117-0-0243 6127/02-885-500 Bedienelement, 4/8-fach future® linear - Multifunktion/Farbkonzept ETS4/ETS5 Applikation 1.0 05.07.2016 Info
206 6117-0-0240 6127/02-803-500 Bedienelement, 4/8-fach solo® - Multifunktion/Farbkonzept Zusatzsoftware: PowerTool 05.07.2016 Info
207 6117-0-0240 6127/02-803-500 Bedienelement, 4/8-fach solo® - Multifunktion/Farbkonzept ETS4/ETS5 Applikation 1.0 05.07.2016 Info
208 6117-0-0251 6127/02-896-500 Bedienelement, 4/8-fach Busch-axcent® - Multifunktion/Farbkonzept Zusatzsoftware: PowerTool 05.07.2016 Info
209 6117-0-0251 6127/02-896-500 Bedienelement, 4/8-fach Busch-axcent® - Multifunktion/Farbkonzept ETS4/ETS5 Applikation 1.0 05.07.2016 Info
210 6117-0-0239 6127/02-866-500 Bedienelement, 4/8-fach pur edelstahl - Multifunktion/Farbkonzept Zusatzsoftware: PowerTool 05.07.2016 Info
211 6117-0-0239 6127/02-866-500 Bedienelement, 4/8-fach pur edelstahl - Multifunktion/Farbkonzept ETS4/ETS5 Applikation 1.0 05.07.2016 Info
212 6134-0-0295 6124/01-81-500 Raumtemperaturregler future® linear - Heiz-/Kühlbetrieb/Farbkonzept Zusatzsoftware: PowerTool 05.07.2016 Info
213 6134-0-0274 6124/01-82-500 Raumtemperaturregler future® linear - Heiz-/Kühlbetrieb/Farbkonzept Zusatzsoftware: PowerTool 05.07.2016 Info
214 6134-0-0275 6124/01-83-500 Raumtemperaturregler future® linear - Heiz-/Kühlbetrieb/Farbkonzept Zusatzsoftware: PowerTool 05.07.2016 Info
215 6134-0-0248 6124/01-84-500 Raumtemperaturregler future® linear - Heiz-/Kühlbetrieb/Farbkonzept Zusatzsoftware: PowerTool 05.07.2016 Info
216 6134-0-0282 6124/01-884-500 Raumtemperaturregler future® linear - Heiz-/Kühlbetrieb/Farbkonzept Zusatzsoftware: PowerTool 05.07.2016 Info
217 6134-0-0283 6124/01-885-500 Raumtemperaturregler future® linear - Heiz-/Kühlbetrieb/Farbkonzept Zusatzsoftware: PowerTool 05.07.2016 Info
218 6134-0-0280 6124/01-803-500 Raumtemperaturregler solo® - Heiz-/Kühlbetrieb/Farbkonzept Zusatzsoftware: PowerTool 05.07.2016 Info
219 6134-0-0304 6124/01-896-500 Raumtemperaturregler Busch-axcent® - Heiz-/Kühlbetrieb/Farbkonzept Zusatzsoftware: PowerTool 05.07.2016 Info
220 6134-0-0279 6124/01-866-500 Raumtemperaturregler pur edelstahl - Heiz-/Kühlbetrieb/Farbkonzept Zusatzsoftware: PowerTool 05.07.2016 Info
221 6132-0-0283 6122/02-81-500 Busch-Wächter® 180 UP Sensor Komfort II future® linear - mit Multilinse Zusatzsoftware: PowerTool 05.07.2016 Info
222 6132-0-0284 6122/02-82-500 Busch-Wächter® 180 UP Sensor Komfort II future® linear - mit Multilinse Zusatzsoftware: PowerTool 05.07.2016 Info
223 6132-0-0285 6122/02-83-500 Busch-Wächter® 180 UP Sensor Komfort II future® linear - mit Multilinse Zusatzsoftware: PowerTool 05.07.2016 Info
224 6132-0-0263 6122/02-84-500 Busch-Wächter® 180 UP Sensor Komfort II future® linear - mit Multilinse Zusatzsoftware: PowerTool 05.07.2016 Info
225 6132-0-0292 6122/02-884-500 Busch-Wächter® 180 UP Sensor Komfort II future® linear - mit Multilinse Zusatzsoftware: PowerTool 05.07.2016 Info
226 6132-0-0293 6122/02-885-500 Busch-Wächter® 180 UP Sensor Komfort II future® linear - mit Multilinse Zusatzsoftware: PowerTool 05.07.2016 Info
227 6132-0-0290 6122/02-803-500 Busch-Wächter® 180 UP Sensor Komfort II solo® - mit Multilinse Zusatzsoftware: PowerTool 05.07.2016 Info
228 6132-0-0324 6122/02-896-500 Busch-Wächter® 180 UP Sensor Komfort II Busch-axcent® - mit Multilinse Zusatzsoftware: PowerTool 05.07.2016 Info
229 6132-0-0289 6122/02-866-500 Busch-Wächter® 180 UP Sensor Komfort II pur edelstahl - mit Multilinse Zusatzsoftware: PowerTool 05.07.2016 Info
230 6115-0-0205 6125/01-81-500 Bedienelement 1-fach - mit beiliegendem Busankoppler Zusatzsoftware: PowerTool 05.07.2016 Info
231 6115-0-0205 6125/01-81-500 Bedienelement 1-fach - mit beiliegendem Busankoppler ETS4/ETS5 Applikation 1.0 05.07.2016 Info
232 6115-0-0206 6125/01-82-500 Bedienelement 1-fach - mit beiliegendem Busankoppler Zusatzsoftware: PowerTool 05.07.2016 Info
233 6115-0-0206 6125/01-82-500 Bedienelement 1-fach - mit beiliegendem Busankoppler ETS4/ETS5 Applikation 1.0 05.07.2016 Info
234 6115-0-0207 6125/01-83-500 Bedienelement 1-fach - mit beiliegendem Busankoppler Zusatzsoftware: PowerTool 05.07.2016 Info
235 6115-0-0207 6125/01-83-500 Bedienelement 1-fach - mit beiliegendem Busankoppler ETS4/ETS5 Applikation 1.0 05.07.2016 Info
236 6115-0-0214 6125/01-884-500 Bedienelement 1-fach - mit beiliegendem Busankoppler Zusatzsoftware: PowerTool 05.07.2016 Info
237 6115-0-0214 6125/01-884-500 Bedienelement 1-fach - mit beiliegendem Busankoppler ETS4/ETS5 Applikation 1.0 05.07.2016 Info
238 6115-0-0215 6125/01-885-500 Bedienelement 1-fach - mit beiliegendem Busankoppler Zusatzsoftware: PowerTool 05.07.2016 Info
239 6115-0-0215 6125/01-885-500 Bedienelement 1-fach - mit beiliegendem Busankoppler ETS4/ETS5 Applikation 1.0 05.07.2016 Info
240 6116-0-0195 6126/01-81-500 Bedienelement, 2-fach - mit beiliegendem Busankoppler Zusatzsoftware: PowerTool 05.07.2016 Info
241 6116-0-0195 6126/01-81-500 Bedienelement, 2-fach - mit beiliegendem Busankoppler ETS4/ETS5 Applikation 1.0 05.07.2016 Info
242 6116-0-0196 6126/01-82-500 Bedienelement, 2-fach - mit beiliegendem Busankoppler Zusatzsoftware: PowerTool 05.07.2016 Info
243 6116-0-0196 6126/01-82-500 Bedienelement, 2-fach - mit beiliegendem Busankoppler ETS4/ETS5 Applikation 1.0 05.07.2016 Info
244 6116-0-0197 6126/01-83-500 Bedienelement, 2-fach - mit beiliegendem Busankoppler Zusatzsoftware: PowerTool 05.07.2016 Info
245 6116-0-0197 6126/01-83-500 Bedienelement, 2-fach - mit beiliegendem Busankoppler ETS4/ETS5 Applikation 1.0 05.07.2016 Info
246 6116-0-0174 6126/01-84-500 Bedienelement, 2-fach - mit beiliegendem Busankoppler Zusatzsoftware: PowerTool 05.07.2016 Info
247 6116-0-0174 6126/01-84-500 Bedienelement, 2-fach - mit beiliegendem Busankoppler ETS4/ETS5 Applikation 1.0 05.07.2016 Info
248 6116-0-0204 6126/01-884-500 Bedienelement, 2-fach - mit beiliegendem Busankoppler Zusatzsoftware: PowerTool 05.07.2016 Info
249 6116-0-0204 6126/01-884-500 Bedienelement, 2-fach - mit beiliegendem Busankoppler ETS4/ETS5 Applikation 1.0 05.07.2016 Info
250 6116-0-0205 6126/01-885-500 Bedienelement, 2-fach - mit beiliegendem Busankoppler Zusatzsoftware: PowerTool 05.07.2016 Info
251 6116-0-0205 6126/01-885-500 Bedienelement, 2-fach - mit beiliegendem Busankoppler ETS4/ETS5 Applikation 1.0 05.07.2016 Info
252 6117-0-0221 6127/01-81-500 Bedienelement, 4-fach - mit beiliegendem Busankoppler Zusatzsoftware: PowerTool 05.07.2016 Info
253 6117-0-0221 6127/01-81-500 Bedienelement, 4-fach - mit beiliegendem Busankoppler ETS4/ETS5 Applikation 1.0 05.07.2016 Info
254 6117-0-0222 6127/01-82-500 Bedienelement, 4-fach - mit beiliegendem Busankoppler Zusatzsoftware: PowerTool 05.07.2016 Info
255 6117-0-0222 6127/01-82-500 Bedienelement, 4-fach - mit beiliegendem Busankoppler ETS4/ETS5 Applikation 1.0 05.07.2016 Info
256 6117-0-0223 6127/01-83-500 Bedienelement, 4-fach - mit beiliegendem Busankoppler Zusatzsoftware: PowerTool 05.07.2016 Info
257 6117-0-0223 6127/01-83-500 Bedienelement, 4-fach - mit beiliegendem Busankoppler ETS4/ETS5 Applikation 1.0 05.07.2016 Info
258 6117-0-0200 6127/01-84-500 Bedienelement, 4-fach - mit beiliegendem Busankoppler Zusatzsoftware: PowerTool 05.07.2016 Info
259 6117-0-0200 6127/01-84-500 Bedienelement, 4-fach - mit beiliegendem Busankoppler ETS4/ETS5 Applikation 1.0 05.07.2016 Info
260 6117-0-0230 6127/01-884-500 Bedienelement, 4-fach - mit beiliegendem Busankoppler Zusatzsoftware: PowerTool 05.07.2016 Info
261 6117-0-0230 6127/01-884-500 Bedienelement, 4-fach - mit beiliegendem Busankoppler ETS4/ETS5 Applikation 1.0 05.07.2016 Info
262 6117-0-0231 6127/01-885-500 Bedienelement, 4-fach - mit beiliegendem Busankoppler Zusatzsoftware: PowerTool 05.07.2016 Info
263 6117-0-0231 6127/01-885-500 Bedienelement, 4-fach - mit beiliegendem Busankoppler ETS4/ETS5 Applikation 1.0 05.07.2016 Info
264 6115-0-0183 6125/01-84-500 Bedienelement 1-fach - mit beiliegendem Busankoppler Zusatzsoftware: PowerTool 05.07.2016 Info
265 6115-0-0183 6125/01-84-500 Bedienelement 1-fach - mit beiliegendem Busankoppler ETS4/ETS5 Applikation 1.0 05.07.2016 Info
266 6115-0-0212 6125/01-803-500 Bedienelement 1-fach - mit beiliegendem Busankoppler Zusatzsoftware: PowerTool 05.07.2016 Info
267 6115-0-0212 6125/01-803-500 Bedienelement 1-fach - mit beiliegendem Busankoppler ETS4/ETS5 Applikation 1.0 05.07.2016 Info
268 6116-0-0202 6126/01-803-500 Bedienelement, 2-fach - mit beiliegendem Busankoppler Zusatzsoftware: PowerTool 05.07.2016 Info
269 6116-0-0202 6126/01-803-500 Bedienelement, 2-fach - mit beiliegendem Busankoppler ETS4/ETS5 Applikation 1.0 05.07.2016 Info
270 6117-0-0228 6127/01-803-500 Bedienelement, 4-fach - mit beiliegendem Busankoppler Zusatzsoftware: PowerTool 05.07.2016 Info
271 6117-0-0228 6127/01-803-500 Bedienelement, 4-fach - mit beiliegendem Busankoppler ETS4/ETS5 Applikation 1.0 05.07.2016 Info
272 6115-0-0449 6125/01-896-500 Bedienelement 1-fach Busch-axcent® - mit beiliegendem Busankoppler Zusatzsoftware: PowerTool 05.07.2016 Info
273 6115-0-0449 6125/01-896-500 Bedienelement 1-fach Busch-axcent® - mit beiliegendem Busankoppler ETS4/ETS5 Applikation 1.0 05.07.2016 Info
274 6115-0-0211 6125/01-866-500 Bedienelement 1-fach pur edelstahl - mit beiliegendem Busankoppler Zusatzsoftware: PowerTool 05.07.2016 Info
275 6115-0-0211 6125/01-866-500 Bedienelement 1-fach pur edelstahl - mit beiliegendem Busankoppler ETS4/ETS5 Applikation 1.0 05.07.2016 Info
276 6116-0-0224 6126/01-896-500 Bedienelement, 2-fach Busch-axcent® - mit beiliegendem Busankoppler Zusatzsoftware: PowerTool 05.07.2016 Info
277 6116-0-0224 6126/01-896-500 Bedienelement, 2-fach Busch-axcent® - mit beiliegendem Busankoppler ETS4/ETS5 Applikation 1.0 05.07.2016 Info
278 6116-0-0201 6126/01-866-500 Bedienelement, 2-fach pur edelstahl - mit beiliegendem Busankoppler Zusatzsoftware: PowerTool 05.07.2016 Info
279 6116-0-0201 6126/01-866-500 Bedienelement, 2-fach pur edelstahl - mit beiliegendem Busankoppler ETS4/ETS5 Applikation 1.0 05.07.2016 Info
280 6117-0-0249 6127/01-896-500 Bedienelement, 4-fach Busch-axcent® - mit beiliegendem Busankoppler Zusatzsoftware: PowerTool 05.07.2016 Info
281 6117-0-0249 6127/01-896-500 Bedienelement, 4-fach Busch-axcent® - mit beiliegendem Busankoppler ETS4/ETS5 Applikation 1.0 05.07.2016 Info
282 6117-0-0227 6127/01-866-500 Bedienelement, 4-fach pur edelstahl - mit beiliegendem Busankoppler Zusatzsoftware: PowerTool 05.07.2016 Info
283 6117-0-0227 6127/01-866-500 Bedienelement, 4-fach pur edelstahl - mit beiliegendem Busankoppler ETS4/ETS5 Applikation 1.0 05.07.2016 Info
284 6134-0-0331 6128/28-81-500 Bedienelement 2/4-fach, mit RTR future® linear - Multifunktion/Farbkonzept Zusatzsoftware: PowerTool 05.07.2016 Info
285 6134-0-0332 6128/28-82-500 Bedienelement 2/4-fach, mit RTR future® linear - Multifunktion/Farbkonzept Zusatzsoftware: PowerTool 05.07.2016 Info
286 6134-0-0333 6128/28-83-500 Bedienelement 2/4-fach, mit RTR future® linear - Multifunktion/Farbkonzept Zusatzsoftware: PowerTool 05.07.2016 Info
287 6134-0-0334 6128/28-84-500 Bedienelement 2/4-fach, mit RTR future® linear - Multifunktion/Farbkonzept Zusatzsoftware: PowerTool 05.07.2016 Info
288 6134-0-0338 6128/28-884-500 Bedienelement 2/4-fach, mit RTR future® linear - Multifunktion/Farbkonzept Zusatzsoftware: PowerTool 05.07.2016 Info
289 6134-0-0339 6128/28-885-500 Bedienelement 2/4-fach, mit RTR future® linear - Multifunktion/Farbkonzept Zusatzsoftware: PowerTool 05.07.2016 Info
290 6134-0-0336 6128/28-803-500 Bedienelement 2/4-fach, mit RTR solo® - Multifunktion/Farbkonzept Zusatzsoftware: PowerTool 05.07.2016 Info
291 6134-0-0340 6128/28-896-500 Bedienelement 2/4-fach, mit RTR Busch-axcent® - Multifunktion/Farbkonzept Zusatzsoftware: PowerTool 05.07.2016 Info
292 6134-0-0335 6128/28-866-500 Bedienelement 2/4-fach, mit RTR pur edelstahl - Multifunktion/Farbkonzept Zusatzsoftware: PowerTool 05.07.2016 Info
293 6134-0-0308 6108/08-500 Raumtemperaturregler Objektbereich - Heiz-/Kühlbetrieb Zusatzsoftware: PowerTool 05.07.2016 Info
294 6132-0-0313 6179/01-204-500 Busch-Wächter® 220 MasterLINE KNX Zusatzsoftware: PowerTool 05.07.2016 Info
295 6132-0-0314 6179/01-208-500 Busch-Wächter® 220 MasterLINE KNX Zusatzsoftware: PowerTool 05.07.2016 Info
296 6132-0-0317 6179/02-204-500 Busch-Wächter® 220 MasterLINE KNX Premium Zusatzsoftware: PowerTool 05.07.2016 Info
297 6132-0-0318 6179/02-208-500 Busch-Wächter® 220 MasterLINE KNX Premium Zusatzsoftware: PowerTool 05.07.2016 Info
298 6197-0-0036 6197/12-101-500 Universal-Dimmaktor 4x 210 W/VA bis 1x 840 W/VA - 1-4-fach Zusatzsoftware: PowerTool 05.07.2016 Info
299 6197-0-0037 6197/13-101-500 Universal-Dimmaktor 4x 315 W/VA bis 1x 1260 W/VA - 1-4-fach Zusatzsoftware: PowerTool 05.07.2016 Info
300 6197-0-0040 6197/52-101-500 Universal-Dimmaktor 1x 1260 W/VA - 1-fach Zusatzsoftware: PowerTool 1.2.55 05.07.2016 Info
301 6197-0-0038 6197/14-101-500 Universal-Dimmaktor 6x 315 W/VA bis 1x 1890 W/VA - 1-6-fach Zusatzsoftware: PowerTool 05.07.2016 Info
302 6197-0-0039 6197/15-101-500 Universal-Dimmaktor 4x 600 W/VA bis 1x 2400 W/VA - 1-4-fach Zusatzsoftware: PowerTool 05.07.2016 Info
303 6197-0-0041 6197/53-101-500 Universal-Dimmaktor 1 x 2400 W/VA - 1-fach Zusatzsoftware: PowerTool 1.2.55 05.07.2016 Info
304 6136-0-0185 6136/100 C-102-500 Controlpanel SMARTtouch - color Zusatzsoftware: RCP-Tool 1.3.445 14.06.2016
305 6136-0-0186 6136/100 CB-102 Controlpanel B&O - BANG & OLUFSEN, color Zusatzsoftware: RCP-Tool 1.3.445 14.06.2016
306 6320-0-0052 6321/38-20-500 Bedienelement 3/6-fach, mit IR-Schnittstelle und RTR alpha - Busch-triton® ETS4/ETS5 Applikation 1.0 30.05.2016
307 6320-0-0054 6321/38-24G-500 Bedienelement 3/6-fach, mit IR-Schnittstelle und RTR alpha - Busch-triton® ETS4/ETS5 Applikation 1.0 30.05.2016
308 6320-0-0060 6321/38-260-500 Bedienelement 3/6-fach, mit IR-Schnittstelle und RTR alpha - Busch-triton® ETS4/ETS5 Applikation 1.0 30.05.2016
309 6320-0-0056 6321/38-79-500 Bedienelement 3/6-fach, mit IR-Schnittstelle und RTR impuls - Busch-triton® ETS4/ETS5 Applikation 1.0 30.05.2016
310 6320-0-0058 6321/38-83-500 Bedienelement 3/6-fach, mit IR-Schnittstelle und RTR future® linear - Busch-triton® ETS4/ETS5 Applikation 1.0 30.05.2016
311 6320-0-0062 6321/58-20-500 Bedienelement 5/10-fach, mit IR-Schnittstelle und RTR alpha - Busch-triton® ETS4/ETS5 Applikation 1.0 30.05.2016
312 6320-0-0064 6321/58-24G-500 Bedienelement 5/10-fach, mit IR-Schnittstelle und RTR alpha - Busch-triton® ETS4/ETS5 Applikation 1.0 30.05.2016
313 6320-0-0070 6321/58-260-500 Bedienelement 5/10-fach, mit IR-Schnittstelle und RTR alpha - Busch-triton® ETS4/ETS5 Applikation 1.0 30.05.2016
314 6320-0-0066 6321/58-79-500 Bedienelement 5/10-fach, mit IR-Schnittstelle und RTR impuls - Busch-triton® ETS4/ETS5 Applikation 1.0 30.05.2016
315 6320-0-0068 6321/58-83-500 Bedienelement 5/10-fach, mit IR-Schnittstelle und RTR future® linear - Busch-triton® ETS4/ETS5 Applikation 1.0 30.05.2016
316 6136-0-0202 6136/APP-500 Busch-ControlTouch® - Haussteuerung, Infotainment, Entertainment Lizenzbedingungen: Lizenzbedingung 28.04.2016
317 6132-0-0376 6122/10-81-500 Busch-Wächter 180 UP Sensor Standard, Select - mit integriertem Busankoppler ETS4/ETS5 Applikation 1.0 26.04.2016
318 6132-0-0377 6122/10-82-500 Busch-Wächter 180 UP Sensor Standard, Select - mit integriertem Busankoppler ETS4/ETS5 Applikation 1.0 26.04.2016
319 6132-0-0373 6122/10-212-500 Busch-Wächter 180 UP Sensor Standard, Select Busch-Duro 2000® SI - mit integriertem Busankoppler ETS4/ETS5 Applikation 1.0 26.04.2016
320 6132-0-0374 6122/10-214-500 Busch-Wächter 180 UP Sensor Standard, Select Reflex SI - mit integriertem Busankoppler ETS4/ETS5 Applikation 1.0 26.04.2016
321 6132-0-0359 6122/10-914 Busch-Wächter 180 UP Sensor Standard, Select Busch-balance® SI - mit integriertem Busankoppler ETS4/ETS5 Applikation 1.0 26.04.2016
322 6132-0-0378 6122/10-83-500 Busch-Wächter 180 UP Sensor Standard, Select future® linear - mit integriertem Busankoppler ETS4/ETS5 Applikation 1.0 26.04.2016
323 6132-0-0379 6122/10-84-500 Busch-Wächter 180 UP Sensor Standard, Select future® linear - mit integriertem Busankoppler ETS4/ETS5 Applikation 1.0 26.04.2016
324 6132-0-0380 6122/10-884-500 Busch-Wächter 180 UP Sensor Standard, Select future® linear - mit integriertem Busankoppler ETS4/ETS5 Applikation 1.0 26.04.2016
325 6132-0-0381 6122/10-885-500 Busch-Wächter 180 UP Sensor Standard, Select future® linear - mit integriertem Busankoppler ETS4/ETS5 Applikation 1.0 26.04.2016
326 6132-0-0382 6122/10-803-500 Busch-Wächter 180 UP Sensor Standard, Select solo® - mit integriertem Busankoppler ETS4/ETS5 Applikation 1.0 26.04.2016
327 6132-0-0384 6122/10-896-500 Busch-Wächter 180 UP Sensor Standard, Select Busch-axcent® - mit integriertem Busankoppler ETS4/ETS5 Applikation 1.0 26.04.2016
328 6132-0-0385 6122/10-866-500 Busch-Wächter 180 UP Sensor Standard, Select pur edelstahl - mit integriertem Busankoppler ETS4/ETS5 Applikation 1.0 26.04.2016
329 6133-0-0221 6108/06-500 Tasterankopplung 2-fach - mit integriertem Busankoppler ETS4/ETS5 Applikation 1.0 15.04.2016
330 6133-0-0223 6108/07-500 Tasterankopplung 4-fach - mit integriertem Busankoppler ETS4/ETS5 Applikation 1.0 15.04.2016
331 6133-0-0225 6108/06-AP-500 Tasterankopplung 2-fach für ocean - mit integriertem Busankoppler ETS4/ETS5 Applikation 1.0 15.04.2016
332 6133-0-0227 6108/07-AP-500 Tasterankopplung 4-fach für ocean - mit integriertem Busankoppler ETS4/ETS5 Applikation 1.0 15.04.2016
333 6134-0-0319 6108/18-500 Raumtemperaturregler mit Display - Heiz-/Kühlbetrieb ETS4/ETS5 Applikation 1.0 15.04.2016
334 6134-0-0331 6128/28-81-500 Bedienelement 2/4-fach, mit RTR future® linear - Multifunktion/Farbkonzept ETS4/ETS5 Applikation 1.0 13.04.2016
335 6134-0-0332 6128/28-82-500 Bedienelement 2/4-fach, mit RTR future® linear - Multifunktion/Farbkonzept ETS4/ETS5 Applikation 1.0 13.04.2016
336 6134-0-0333 6128/28-83-500 Bedienelement 2/4-fach, mit RTR future® linear - Multifunktion/Farbkonzept ETS4/ETS5 Applikation 1.0 13.04.2016
337 6134-0-0334 6128/28-84-500 Bedienelement 2/4-fach, mit RTR future® linear - Multifunktion/Farbkonzept ETS4/ETS5 Applikation 1.0 13.04.2016
338 6134-0-0338 6128/28-884-500 Bedienelement 2/4-fach, mit RTR future® linear - Multifunktion/Farbkonzept ETS4/ETS5 Applikation 1.0 13.04.2016
339 6134-0-0339 6128/28-885-500 Bedienelement 2/4-fach, mit RTR future® linear - Multifunktion/Farbkonzept ETS4/ETS5 Applikation 1.0 13.04.2016
340 6134-0-0336 6128/28-803-500 Bedienelement 2/4-fach, mit RTR solo® - Multifunktion/Farbkonzept ETS4/ETS5 Applikation 1.0 13.04.2016
341 6134-0-0340 6128/28-896-500 Bedienelement 2/4-fach, mit RTR Busch-axcent® - Multifunktion/Farbkonzept ETS4/ETS5 Applikation 1.0 13.04.2016
342 6134-0-0335 6128/28-866-500 Bedienelement 2/4-fach, mit RTR pur edelstahl - Multifunktion/Farbkonzept ETS4/ETS5 Applikation 1.0 13.04.2016
343 6136-0-0202 6136/APP-500 Busch-ControlTouch® - Haussteuerung, Infotainment, Entertainment Zusatzsoftware: Finde dein Busch-ControlTouch® Windows. 1.0 29.03.2016
344 6136-0-0202 6136/APP-500 Busch-ControlTouch® - Haussteuerung, Infotainment, Entertainment Zusatzsoftware: Finde dein Busch-ControlTouch® Mac. 1.0 29.03.2016
345 8300-0-0353 83221AP-611 ABB-free@homeTouch 7" - Innenstation Video mit 17,8 cm (7") Touch-Display Installationsanleitung 22.03.2016
346 8300-0-0353 83221AP-611 ABB-free@homeTouch 7" - Innenstation Video mit 17,8 cm (7") Touch-Display Firmware: Busch-free@homePanel 7" 1.16 22.03.2016
347 8300-0-0354 83221AP-625 ABB-free@homeTouch 7" - Innenstation Video mit 17,8 cm (7") Touch-Display Installationsanleitung 22.03.2016
348 8300-0-0354 83221AP-625 ABB-free@homeTouch 7" - Innenstation Video mit 17,8 cm (7") Touch-Display Firmware: Busch-free@homePanel 7" 1.16 22.03.2016
349 8100-0-0358 8186/31-101 WLAN-Accesspoint, UP - Spannungsversorgung durch Netzspannung Firmware 3.0 10.11.2015
350 6220-0-0031 6200 AP System Access Point - for ABB-free@home® Installationsanleitung 16.07.2015
351 6200-0-0071 6200 AP-101 System Access Point - for ABB-free@home® Installationsanleitung 16.07.2015
352 6220-0-0031 6200 AP System Access Point - for ABB-free@home® Mit Download der Firmware gelten die folgenden Lizenzbedingungen 16.06.2015
353 6220-0-0031 6200 AP System Access Point - for ABB-free@home® Cyber Security Information 16.06.2015
354 6200-0-0071 6200 AP-101 System Access Point - for ABB-free@home® Mit Download der Firmware gelten die folgenden Lizenzbedingungen 16.06.2015
355 6200-0-0071 6200 AP-101 System Access Point - for ABB-free@home® Cyber Security Information 16.06.2015
356 6120-0-0075 6120/12-101-500 Busankoppler Zusatzsoftware: PowerTool 29.05.2015 Info
357 6120-0-0072 6120/13-500 UP-Power-Busankoppler - Busch-priOn® Zusatzsoftware: PowerTool 1.2.55 29.05.2015 Info
358 8300-0-0353 83221AP-611 ABB-free@homeTouch 7" - Innenstation Video mit 17,8 cm (7") Touch-Display Release Notes 1.11 22.05.2015
359 8300-0-0354 83221AP-625 ABB-free@homeTouch 7" - Innenstation Video mit 17,8 cm (7") Touch-Display Release Notes 1.11 22.05.2015
360 8300-0-0374 83342 IP-Gateway Firmware 3.13 14.05.2015
361 6900-0-1697 6936/100 C-102 Controlpanel SMARTtouch - color Zusatzsoftware: RCP-Tool 1.3.439 12.05.2015
362 6900-0-1698 6936/100 CB-102 Controlpanel B&O - BANG & OLUFSEN, color Zusatzsoftware: RCP-Tool 1.3.439 12.05.2015
363 6800-0-2545 6854 AGM-201 Busch-Wächter® 70 MasterLINE Zusatzsoftware: Busch-Wächter® CAD-Planungssoftware 4.4.0.0 21.04.2015
364 6800-0-2542 6854 AGM-204 Busch-Wächter® 70 MasterLINE Zusatzsoftware: Busch-Wächter® CAD-Planungssoftware 4.4.0.0 21.04.2015
365 6800-0-2543 6854 AGM-208 Busch-Wächter® 70 MasterLINE Zusatzsoftware: Busch-Wächter® CAD-Planungssoftware 4.4.0.0 21.04.2015
366 6800-0-2544 6854 AGM-35 Busch-Wächter® 70 MasterLINE Zusatzsoftware: Busch-Wächter® CAD-Planungssoftware 4.4.0.0 21.04.2015
367 6800-0-2610 6855 AGM-201 Busch-Wächter® 110 MasterLINE Zusatzsoftware: Busch-Wächter® CAD-Planungssoftware 4.4.0.0 21.04.2015
368 6800-0-2607 6855 AGM-204 Busch-Wächter® 110 MasterLINE Zusatzsoftware: Busch-Wächter® CAD-Planungssoftware 4.4.0.0 21.04.2015
369 6800-0-2608 6855 AGM-208 Busch-Wächter® 110 MasterLINE Zusatzsoftware: Busch-Wächter® CAD-Planungssoftware 4.4.0.0 21.04.2015
370 6800-0-2609 6855 AGM-35 Busch-Wächter® 110 MasterLINE Zusatzsoftware: Busch-Wächter® CAD-Planungssoftware 4.4.0.0 21.04.2015
371 6800-0-2523 6847/11 AGM-201 Busch-Wächter® 220 MasterLINE Zusatzsoftware: Busch-Wächter® CAD-Planungssoftware 4.4.0.0 21.04.2015
372 6800-0-2520 6847/11 AGM-204 Busch-Wächter® 220 MasterLINE Zusatzsoftware: Busch-Wächter® CAD-Planungssoftware 4.4.0.0 21.04.2015
373 6800-0-2521 6847/11 AGM-208 Busch-Wächter® 220 MasterLINE Zusatzsoftware: Busch-Wächter® CAD-Planungssoftware 4.4.0.0 21.04.2015
374 6800-0-2522 6847/11 AGM-35 Busch-Wächter® 220 MasterLINE Zusatzsoftware: Busch-Wächter® CAD-Planungssoftware 4.4.0.0 21.04.2015
375 6800-0-2531 6847 AGM-201 Busch-Wächter® 220 MasterLINE - inkl. IR-Handsender Zusatzsoftware: Busch-Wächter® CAD-Planungssoftware 4.4.0.0 21.04.2015
376 6800-0-2528 6847 AGM-204 Busch-Wächter® 220 MasterLINE - inkl. IR-Handsender Zusatzsoftware: Busch-Wächter® CAD-Planungssoftware 4.4.0.0 21.04.2015
377 6800-0-2529 6847 AGM-208 Busch-Wächter® 220 MasterLINE - inkl. IR-Handsender Zusatzsoftware: Busch-Wächter® CAD-Planungssoftware 4.4.0.0 21.04.2015
378 6800-0-2530 6847 AGM-35 Busch-Wächter® 220 MasterLINE - inkl. IR-Handsender Zusatzsoftware: Busch-Wächter® CAD-Planungssoftware 4.4.0.0 21.04.2015
379 6800-0-2599 6847/8 AGM-204 Busch-Wächter® 220 MasterLINE - inkl. IR-Handsender Zusatzsoftware: Busch-Wächter® CAD-Planungssoftware 4.4.0.0 21.04.2015
380 6800-0-2536 6847 AGS-204 Busch-Wächter® 220 MasterLINE select Zusatzsoftware: Busch-Wächter® CAD-Planungssoftware 4.4.0.0 21.04.2015
381 6800-0-2577 6848 AGM-201 Busch-Wächter® 220 MasterLINE premium - inkl. IR-Handsender Zusatzsoftware: Busch-Wächter® CAD-Planungssoftware 4.4.0.0 21.04.2015
382 6800-0-2574 6848 AGM-204 Busch-Wächter® 220 MasterLINE premium - inkl. IR-Handsender Zusatzsoftware: Busch-Wächter® CAD-Planungssoftware 4.4.0.0 21.04.2015
383 6800-0-2575 6848 AGM-208 Busch-Wächter® 220 MasterLINE premium - inkl. IR-Handsender Zusatzsoftware: Busch-Wächter® CAD-Planungssoftware 4.4.0.0 21.04.2015
384 6800-0-2576 6848 AGM-35 Busch-Wächter® 220 MasterLINE premium - inkl. IR-Handsender Zusatzsoftware: Busch-Wächter® CAD-Planungssoftware 4.4.0.0 21.04.2015
385 6800-0-2553 6867 AGM-201 Busch-Wächter® 280 MasterLINE - inkl. IR-Handsender Zusatzsoftware: Busch-Wächter® CAD-Planungssoftware 4.4.0.0 21.04.2015
386 6800-0-2550 6867 AGM-204 Busch-Wächter® 280 MasterLINE - inkl. IR-Handsender Zusatzsoftware: Busch-Wächter® CAD-Planungssoftware 4.4.0.0 21.04.2015
387 6800-0-2551 6867 AGM-208 Busch-Wächter® 280 MasterLINE - inkl. IR-Handsender Zusatzsoftware: Busch-Wächter® CAD-Planungssoftware 4.4.0.0 21.04.2015
388 6800-0-2552 6867 AGM-35 Busch-Wächter® 280 MasterLINE - inkl. IR-Handsender Zusatzsoftware: Busch-Wächter® CAD-Planungssoftware 4.4.0.0 21.04.2015
389 6700-0-0034 6747 AGM-201 Busch-Wächter® 220 WaveLINE Zusatzsoftware: Busch-Wächter® CAD-Planungssoftware 4.4.0.0 21.04.2015
390 6700-0-0031 6747 AGM-204 Busch-Wächter® 220 WaveLINE Zusatzsoftware: Busch-Wächter® CAD-Planungssoftware 4.4.0.0 21.04.2015
391 6700-0-0032 6747 AGM-208 Busch-Wächter® 220 WaveLINE Zusatzsoftware: Busch-Wächter® CAD-Planungssoftware 4.4.0.0 21.04.2015
392 6700-0-0033 6747 AGM-35 Busch-Wächter® 220 WaveLINE Zusatzsoftware: Busch-Wächter® CAD-Planungssoftware 4.4.0.0 21.04.2015
393 6800-0-2318 6853 AGM-201 Busch-Wächter® 90 ProfessionalLINE Zusatzsoftware: Busch-Wächter® CAD-Planungssoftware 4.4.0.0 21.04.2015
394 6800-0-2317 6853 AGM-204 Busch-Wächter® 90 ProfessionalLINE Zusatzsoftware: Busch-Wächter® CAD-Planungssoftware 4.4.0.0 21.04.2015
395 6800-0-2331 6845/11 AGM-201 Busch-Wächter® 220 ProfessionalLINE - ohne IR-Handsender Zusatzsoftware: Busch-Wächter® CAD-Planungssoftware 4.4.0.0 21.04.2015
396 6800-0-2330 6845/11 AGM-204 Busch-Wächter® 220 ProfessionalLINE - ohne IR-Handsender Zusatzsoftware: Busch-Wächter® CAD-Planungssoftware 4.4.0.0 21.04.2015
397 8136-0-0024 8136/09-811-500 Busch-ComfortPanel - Haussteuerung, Infotainment, Entertainment Lizenzbedingungen: Cyber Security Information 16.04.2015
398 8136-0-0026 8136/09-825-500 Busch-ComfortPanel - Haussteuerung, Infotainment, Entertainment Lizenzbedingungen: Cyber Security Information 16.04.2015
399 8136-0-0028 8136/12-811-500 Busch-ComfortPanel® 12.1" - Haussteuerung, Infotainment, Entertainment Lizenzbedingungen: Cyber Security Information 16.04.2015
400 8136-0-0030 8136/12-825-500 Busch-ComfortPanel® 12.1" - Haussteuerung, Infotainment, Entertainment Lizenzbedingungen: Cyber Security Information 16.04.2015
401 6120-0-0072 6120/13-500 UP-Power-Busankoppler - Busch-priOn® Firmware 18.03.2015 Info
402 6310-0-0060 6920/13 UP-Power-Netzankoppler Firmware 18.03.2015 Info
403 8100-0-0356 8186/41 WLAN-Accesspoint PoE, UP - Spannungsversorgung durch Power over Ethernet Firmware 2.0 05.03.2015
404 6310-0-0133 6344-24G-101-500 8,89 cm TFT-Farbdisplay mit Drehbedienelement - Busch-priOn® ETS3 Applikation 2.0 17.02.2015 Info
405 6310-0-0174 6344-811-101-500 8,89 cm TFT-Farbdisplay mit Drehbedienelement - Busch-priOn® ETS3 Applikation 2.0 17.02.2015 Info
406 6310-0-0132 6344-825-101-500 8,89 cm TFT-Farbdisplay mit Drehbedienelement - Busch-priOn® ETS3 Applikation 2.0 17.02.2015 Info
407 6310-0-0130 6344-866-101-500 8,89 cm TFT-Farbdisplay mit Drehbedienelement - Busch-priOn® ETS3 Applikation 2.0 17.02.2015 Info
408 6310-0-0125 6342-24G-101-500 Bedienelement 3-fach - Busch-priOn® ETS-Applikation für PowerTool 2.0 17.02.2015 Info
409 6310-0-0125 6342-24G-101-500 Bedienelement 3-fach - Busch-priOn® ETS-Applikation für PowerTool 2.0 17.02.2015 Info
410 6310-0-0172 6342-811-101-500 Bedienelement 3-fach - Busch-priOn® ETS-Applikation für PowerTool 2.0 17.02.2015 Info
411 6310-0-0172 6342-811-101-500 Bedienelement 3-fach - Busch-priOn® ETS-Applikation für PowerTool 2.0 17.02.2015 Info
412 6310-0-0124 6342-825-101-500 Bedienelement 3-fach - Busch-priOn® ETS-Applikation für PowerTool 2.0 17.02.2015 Info
413 6310-0-0124 6342-825-101-500 Bedienelement 3-fach - Busch-priOn® ETS-Applikation für PowerTool 2.0 17.02.2015 Info
414 6310-0-0122 6342-866-101-500 Bedienelement 3-fach - Busch-priOn® ETS-Applikation für PowerTool 2.0 17.02.2015 Info
415 6310-0-0122 6342-866-101-500 Bedienelement 3-fach - Busch-priOn® ETS-Applikation für PowerTool 2.0 17.02.2015 Info
416 6310-0-0109 6340-24G-101-500 Bedienelement 1-fach - Busch-priOn® ETS-Applikation für PowerTool 2.0 17.02.2015 Info
417 6310-0-0109 6340-24G-101-500 Bedienelement 1-fach - Busch-priOn® ETS-Applikation für PowerTool 2.0 17.02.2015 Info
418 6310-0-0168 6340-811-101-500 Bedienelement 1-fach - Busch-priOn® ETS-Applikation für PowerTool 2.0 17.02.2015 Info
419 6310-0-0168 6340-811-101-500 Bedienelement 1-fach - Busch-priOn® ETS-Applikation für PowerTool 2.0 17.02.2015 Info
420 6310-0-0108 6340-825-101-500 Bedienelement 1-fach - Busch-priOn® ETS-Applikation für PowerTool 2.0 17.02.2015 Info
421 6310-0-0108 6340-825-101-500 Bedienelement 1-fach - Busch-priOn® ETS-Applikation für PowerTool 2.0 17.02.2015 Info
422 6310-0-0106 6340-866-101-500 Bedienelement 1-fach - Busch-priOn® ETS-Applikation für PowerTool 2.0 17.02.2015 Info
423 6310-0-0106 6340-866-101-500 Bedienelement 1-fach - Busch-priOn® ETS-Applikation für PowerTool 2.0 17.02.2015 Info
424 6310-0-0117 6341-24G-101-500 Drehbedienelement 1-fach - Busch-priOn® ETS-Applikation für PowerTool 2.0 17.02.2015 Info
425 6310-0-0117 6341-24G-101-500 Drehbedienelement 1-fach - Busch-priOn® ETS-Applikation für PowerTool 2.0 17.02.2015 Info
426 6310-0-0170 6341-811-101-500 Drehbedienelement 1-fach - Busch-priOn® ETS-Applikation für PowerTool 2.0 17.02.2015 Info
427 6310-0-0170 6341-811-101-500 Drehbedienelement 1-fach - Busch-priOn® ETS-Applikation für PowerTool 2.0 17.02.2015 Info
428 6310-0-0116 6341-825-101-500 Drehbedienelement 1-fach - Busch-priOn® ETS-Applikation für PowerTool 2.0 17.02.2015 Info
429 6310-0-0116 6341-825-101-500 Drehbedienelement 1-fach - Busch-priOn® ETS-Applikation für PowerTool 2.0 17.02.2015 Info
430 6310-0-0114 6341-866-101-500 Drehbedienelement 1-fach - Busch-priOn® ETS-Applikation für PowerTool 2.0 17.02.2015 Info
431 6310-0-0114 6341-866-101-500 Drehbedienelement 1-fach - Busch-priOn® ETS-Applikation für PowerTool 2.0 17.02.2015 Info
432 6310-0-0081 6345-24G-101-500 Busch-Wächter® 180 UP - Busch-priOn® ETS-Applikation für PowerTool 2.0 17.02.2015 Info
433 6310-0-0081 6345-24G-101-500 Busch-Wächter® 180 UP - Busch-priOn® ETS-Applikation für PowerTool 2.0 17.02.2015 Info
434 6310-0-0176 6345-811-101-500 Busch-Wächter® 180 UP - Busch-priOn® ETS-Applikation für PowerTool 2.0 17.02.2015 Info
435 6310-0-0176 6345-811-101-500 Busch-Wächter® 180 UP - Busch-priOn® ETS-Applikation für PowerTool 2.0 17.02.2015 Info
436 6310-0-0080 6345-825-101-500 Busch-Wächter® 180 UP - Busch-priOn® ETS-Applikation für PowerTool 2.0 17.02.2015 Info
437 6310-0-0080 6345-825-101-500 Busch-Wächter® 180 UP - Busch-priOn® ETS-Applikation für PowerTool 2.0 17.02.2015 Info
438 6310-0-0078 6345-866-101-500 Busch-Wächter® 180 UP - Busch-priOn® ETS-Applikation für PowerTool 2.0 17.02.2015 Info
439 6310-0-0078 6345-866-101-500 Busch-Wächter® 180 UP - Busch-priOn® ETS-Applikation für PowerTool 2.0 17.02.2015 Info
440 6310-0-0157 6350-825-101-500 Abschlussleiste oben mit IR-Empfänger und Näherungssensor - Busch-priOn® ETS-Applikation für PowerTool 2.0 17.02.2015 Info
441 6310-0-0157 6350-825-101-500 Abschlussleiste oben mit IR-Empfänger und Näherungssensor - Busch-priOn® ETS-Applikation für PowerTool 2.0 17.02.2015 Info
442 6310-0-0183 6351/08-825-500 Abschlussleiste oben mit Infodisplay, RTR, IR-Empfänger und Näherungssensor - Busch-priOn® ETS-Applikation für PowerTool 2.0 17.02.2015 Info
443 6310-0-0147 6348-24G-101-500 Standardabschlussleiste oben - Busch-priOn® ETS-Applikation für PowerTool 2.0 17.02.2015 Info
444 6310-0-0147 6348-24G-101-500 Standardabschlussleiste oben - Busch-priOn® ETS-Applikation für PowerTool 2.0 17.02.2015 Info
445 6310-0-0178 6348-811-101-500 Standardabschlussleiste oben - Busch-priOn® ETS-Applikation für PowerTool 2.0 17.02.2015 Info
446 6310-0-0178 6348-811-101-500 Standardabschlussleiste oben - Busch-priOn® ETS-Applikation für PowerTool 2.0 17.02.2015 Info
447 6310-0-0146 6348-825-101-500 Standardabschlussleiste oben - Busch-priOn® ETS-Applikation für PowerTool 2.0 17.02.2015 Info
448 6310-0-0146 6348-825-101-500 Standardabschlussleiste oben - Busch-priOn® ETS-Applikation für PowerTool 2.0 17.02.2015 Info
449 6310-0-0144 6348-860-101-500 Standardabschlussleiste oben - Busch-priOn® ETS-Applikation für PowerTool 2.0 17.02.2015 Info
450 6310-0-0144 6348-860-101-500 Standardabschlussleiste oben - Busch-priOn® ETS-Applikation für PowerTool 2.0 17.02.2015 Info
451 6310-0-0155 6349-24G-101-500 Standardabschlussleiste unten - Busch-priOn® ETS-Applikation für PowerTool 2.0 17.02.2015 Info
452 6310-0-0155 6349-24G-101-500 Standardabschlussleiste unten - Busch-priOn® ETS-Applikation für PowerTool 2.0 17.02.2015 Info
453 6310-0-0180 6349-811-101-500 Standardabschlussleiste unten - Busch-priOn® ETS-Applikation für PowerTool 2.0 17.02.2015 Info
454 6310-0-0180 6349-811-101-500 Standardabschlussleiste unten - Busch-priOn® ETS-Applikation für PowerTool 2.0 17.02.2015 Info
455 6310-0-0154 6349-825-101-500 Standardabschlussleiste unten - Busch-priOn® ETS-Applikation für PowerTool 2.0 17.02.2015 Info
456 6310-0-0154 6349-825-101-500 Standardabschlussleiste unten - Busch-priOn® ETS-Applikation für PowerTool 2.0 17.02.2015 Info
457 6310-0-0152 6349-860-101-500 Standardabschlussleiste unten - Busch-priOn® ETS-Applikation für PowerTool 2.0 17.02.2015 Info
458 6310-0-0152 6349-860-101-500 Standardabschlussleiste unten - Busch-priOn® ETS-Applikation für PowerTool 2.0 17.02.2015 Info
459 6310-0-0135 6346/10-101-500 Grundträger, 1-fach - Busch-priOn® ETS-Applikation für PowerTool 2.0 17.02.2015 Info
460 6310-0-0135 6346/10-101-500 Grundträger, 1-fach - Busch-priOn® ETS-Applikation für PowerTool 2.0 17.02.2015 Info
461 6310-0-0137 6346/11-101-500 Grundträger, 2-fach - Busch-priOn® ETS-Applikation für PowerTool 2.0 17.02.2015 Info
462 6310-0-0137 6346/11-101-500 Grundträger, 2-fach - Busch-priOn® ETS-Applikation für PowerTool 2.0 17.02.2015 Info
463 6310-0-0139 6346/12-101-500 Grundträger, 3-fach - Busch-priOn® ETS-Applikation für PowerTool 2.0 17.02.2015 Info
464 6310-0-0139 6346/12-101-500 Grundträger, 3-fach - Busch-priOn® ETS-Applikation für PowerTool 2.0 17.02.2015 Info
465 6310-0-0165 6352-24G-101-500 Abschlussleiste unten mit Temperaturfühler - Busch-priOn® ETS-Applikation für PowerTool 2.0 17.02.2015 Info
466 6310-0-0165 6352-24G-101-500 Abschlussleiste unten mit Temperaturfühler - Busch-priOn® ETS-Applikation für PowerTool 2.0 17.02.2015 Info
467 6310-0-0182 6352-811-101-500 Abschlussleiste unten mit Temperaturfühler - Busch-priOn® ETS-Applikation für PowerTool 2.0 17.02.2015 Info
468 6310-0-0182 6352-811-101-500 Abschlussleiste unten mit Temperaturfühler - Busch-priOn® ETS-Applikation für PowerTool 2.0 17.02.2015 Info
469 6310-0-0164 6352-825-101-500 Abschlussleiste unten mit Temperaturfühler - Busch-priOn® ETS-Applikation für PowerTool 2.0 17.02.2015 Info
470 6310-0-0164 6352-825-101-500 Abschlussleiste unten mit Temperaturfühler - Busch-priOn® ETS-Applikation für PowerTool 2.0 17.02.2015 Info
471 6310-0-0162 6352-860-101-500 Abschlussleiste unten mit Temperaturfühler - Busch-priOn® ETS-Applikation für PowerTool 2.0 17.02.2015 Info
472 6310-0-0162 6352-860-101-500 Abschlussleiste unten mit Temperaturfühler - Busch-priOn® ETS-Applikation für PowerTool 2.0 17.02.2015 Info
473 6310-0-0097 6354 U-500 Schaltaktor 1-fach, UP - Busch-priOn® ETS-Applikation für PowerTool 2.0 17.02.2015 Info
474 6310-0-0097 6354 U-500 Schaltaktor 1-fach, UP - Busch-priOn® ETS-Applikation für PowerTool 2.0 17.02.2015 Info
475 6310-0-0098 6355 U-500 Universal-Dimmaktor 1-fach, UP - Busch-priOn® ETS-Applikation für PowerTool 2.0 17.02.2015 Info
476 6310-0-0098 6355 U-500 Universal-Dimmaktor 1-fach, UP - Busch-priOn® ETS-Applikation für PowerTool 2.0 17.02.2015 Info
477 6310-0-0099 6356 U-500 Serien-/Jalousieaktor 2/1-fach, UP - Busch-priOn® ETS-Applikation für PowerTool 2.0 17.02.2015 Info
478 6310-0-0099 6356 U-500 Serien-/Jalousieaktor 2/1-fach, UP - Busch-priOn® ETS-Applikation für PowerTool 2.0 17.02.2015 Info
479 6310-0-0093 6353/20-860-500 Beschriftungssymbol Beleuchtung ETS-Applikation für PowerTool 2.0 17.02.2015 Info
480 6310-0-0093 6353/20-860-500 Beschriftungssymbol Beleuchtung ETS-Applikation für PowerTool 2.0 17.02.2015 Info
481 6310-0-0094 6353/30-860-500 Beschriftungssymbol Jalousie ETS-Applikation für PowerTool 2.0 17.02.2015 Info
482 6310-0-0094 6353/30-860-500 Beschriftungssymbol Jalousie ETS-Applikation für PowerTool 2.0 17.02.2015 Info
483 6310-0-0095 6353/40-860-500 Beschriftungssymbol Raumtemperatur ETS-Applikation für PowerTool 2.0 17.02.2015 Info
484 6310-0-0095 6353/40-860-500 Beschriftungssymbol Raumtemperatur ETS-Applikation für PowerTool 2.0 17.02.2015 Info
485 6310-0-0096 6353/50-860-500 Beschriftungssymbol Szene ETS-Applikation für PowerTool 2.0 17.02.2015 Info
486 6310-0-0096 6353/50-860-500 Beschriftungssymbol Szene ETS-Applikation für PowerTool 2.0 17.02.2015 Info
487 6134-0-0308 6108/08-500 Raumtemperaturregler Objektbereich - Heiz-/Kühlbetrieb ETS-Applikation für PowerTool 1.0 17.02.2015 Info
488 6134-0-0308 6108/08-500 Raumtemperaturregler Objektbereich - Heiz-/Kühlbetrieb ETS4/ETS5 Applikation 1.0 17.02.2015
489 6132-0-0343 6131/20-183-500 Busch-Präsenzmelder Mini KNX - 8 Meter ETS3 Applikation 1.0 16.02.2015 Info
490 6132-0-0342 6131/20-24-500 Busch-Präsenzmelder Mini KNX - 8 Meter ETS3 Applikation 1.0 16.02.2015 Info
491 6132-0-0345 6131/21-183-500 Busch-Präsenzmelder Mini Premium KNX - 8 Meter ETS3 Applikation 1.0 16.02.2015 Info
492 6132-0-0344 6131/21-24-500 Busch-Präsenzmelder Mini Premium KNX - 8 Meter ETS3 Applikation 1.0 16.02.2015 Info
493 6132-0-0347 6131/30-183-500 Busch-Präsenzmelder KNX - 12 Meter ETS3 Applikation 1.0 16.02.2015 Info
494 6132-0-0346 6131/30-24-500 Busch-Präsenzmelder KNX - 12 Meter ETS3 Applikation 1.0 16.02.2015 Info
495 6132-0-0349 6131/31-183-500 Busch-Präsenzmelder Premium KNX - 12 Meter ETS3 Applikation 1.0 16.02.2015 Info
496 6132-0-0348 6131/31-24-500 Busch-Präsenzmelder Premium KNX - 12 Meter ETS3 Applikation 1.0 16.02.2015 Info
497 6132-0-0350 6131/40-24-500 Busch-Wächter® Sky KNX - 24 Meter ETS3 Applikation 1.0 16.02.2015 Info
498 6132-0-0343 6131/20-183-500 Busch-Präsenzmelder Mini KNX - 8 Meter ETS4/ETS5 Applikation 1.0 28.11.2014 Info
499 6132-0-0342 6131/20-24-500 Busch-Präsenzmelder Mini KNX - 8 Meter ETS4/ETS5 Applikation 1.0 28.11.2014 Info
500 6132-0-0347 6131/30-183-500 Busch-Präsenzmelder KNX - 12 Meter ETS4/ETS5 Applikation 1.0 28.11.2014 Info
501 6132-0-0346 6131/30-24-500 Busch-Präsenzmelder KNX - 12 Meter ETS4/ETS5 Applikation 1.0 28.11.2014 Info
502 6132-0-0350 6131/40-24-500 Busch-Wächter® Sky KNX - 24 Meter ETS4/ETS5 Applikation 1.0 28.11.2014
503 8100-0-0358 8186/31-101 WLAN-Accesspoint, UP - Spannungsversorgung durch Netzspannung Firmware: Mit Download der Firmware gelten die folgenden Lizenzbedingungen 05.11.2014
504 8100-0-0356 8186/41 WLAN-Accesspoint PoE, UP - Spannungsversorgung durch Power over Ethernet Firmware: Mit Download der Firmware gelten die folgenden Lizenzbedingungen 05.11.2014
505 8300-0-0353 83221AP-611 ABB-free@homeTouch 7" - Innenstation Video mit 17,8 cm (7") Touch-Display Mit Download der Firmware gelten die folgenden Lizenzbedingungen 31.10.2014
506 8300-0-0354 83221AP-625 ABB-free@homeTouch 7" - Innenstation Video mit 17,8 cm (7") Touch-Display Mit Download der Firmware gelten die folgenden Lizenzbedingungen 31.10.2014
507 8136-0-0024 8136/09-811-500 Busch-ComfortPanel - Haussteuerung, Infotainment, Entertainment Lizenzbedingungen: Mit Download der Firmware gelten die folgenden Lizenzbedingungen 31.10.2014
508 8136-0-0026 8136/09-825-500 Busch-ComfortPanel - Haussteuerung, Infotainment, Entertainment Lizenzbedingungen: Mit Download der Firmware gelten die folgenden Lizenzbedingungen 31.10.2014
509 8136-0-0028 8136/12-811-500 Busch-ComfortPanel® 12.1" - Haussteuerung, Infotainment, Entertainment Lizenzbedingungen: Mit Download der Firmware gelten die folgenden Lizenzbedingungen 31.10.2014
510 8136-0-0030 8136/12-825-500 Busch-ComfortPanel® 12.1" - Haussteuerung, Infotainment, Entertainment Lizenzbedingungen: Mit Download der Firmware gelten die folgenden Lizenzbedingungen 31.10.2014
511 8300-0-0004 83220 AP-624 Busch-WelcomePanel® - Innenstation Video mit 17,8 cm (7") Touch-Display Firmware: Mit Download der Firmware gelten die folgenden Lizenzbedingungen 31.10.2014
512 8300-0-0005 83220 AP-681 Busch-WelcomePanel® - Innenstation Video mit 17,8 cm (7") Touch-Display Firmware: Mit Download der Firmware gelten die folgenden Lizenzbedingungen 31.10.2014
513 8300-0-0006 83220 AP-683 Busch-WelcomePanel® - Innenstation Video mit 17,8 cm (7") Touch-Display Firmware: Mit Download der Firmware gelten die folgenden Lizenzbedingungen 31.10.2014
514 6310-0-0133 6344-24G-101-500 8,89 cm TFT-Farbdisplay mit Drehbedienelement - Busch-priOn® Firmware: Mit Download der Firmware gelten die folgenden Lizenzbedingungen 24.10.2014
515 6310-0-0174 6344-811-101-500 8,89 cm TFT-Farbdisplay mit Drehbedienelement - Busch-priOn® Firmware: Mit Download der Firmware gelten die folgenden Lizenzbedingungen 24.10.2014
516 6310-0-0132 6344-825-101-500 8,89 cm TFT-Farbdisplay mit Drehbedienelement - Busch-priOn® Firmware: Mit Download der Firmware gelten die folgenden Lizenzbedingungen 24.10.2014
517 6310-0-0130 6344-866-101-500 8,89 cm TFT-Farbdisplay mit Drehbedienelement - Busch-priOn® Firmware: Mit Download der Firmware gelten die folgenden Lizenzbedingungen 24.10.2014
518 8100-0-0356 8186/41 WLAN-Accesspoint PoE, UP - Spannungsversorgung durch Power over Ethernet Zusatzsoftware: Quellcode 2.0 05.03.2014
519 8300-0-0004 83220 AP-624 Busch-WelcomePanel® - Innenstation Video mit 17,8 cm (7") Touch-Display Firmware 2.04 24.02.2014
520 6197-0-0036 6197/12-101-500 Universal-Dimmaktor 4x 210 W/VA bis 1x 840 W/VA - 1-4-fach ETS-Applikation für PowerTool 1.5 27.01.2014 Info
521 6197-0-0037 6197/13-101-500 Universal-Dimmaktor 4x 315 W/VA bis 1x 1260 W/VA - 1-4-fach ETS-Applikation für PowerTool 1.5 27.01.2014 Info
522 6197-0-0040 6197/52-101-500 Universal-Dimmaktor 1x 1260 W/VA - 1-fach ETS-Applikation für PowerTool 1.5 27.01.2014 Info
523 6197-0-0038 6197/14-101-500 Universal-Dimmaktor 6x 315 W/VA bis 1x 1890 W/VA - 1-6-fach ETS-Applikation für PowerTool 1.5 27.01.2014 Info
524 6197-0-0039 6197/15-101-500 Universal-Dimmaktor 4x 600 W/VA bis 1x 2400 W/VA - 1-4-fach ETS-Applikation für PowerTool 1.5 27.01.2014 Info
525 6197-0-0041 6197/53-101-500 Universal-Dimmaktor 1 x 2400 W/VA - 1-fach ETS-Applikation für PowerTool 1.5 27.01.2014 Info
526 6310-0-0060 6920/13 UP-Power-Netzankoppler Zusatzsoftware: PowerTool 27.01.2014 Info
527 6136-0-0186 6136/100 CB-102 Controlpanel B&O - BANG & OLUFSEN, color ETS4/ETS5 Applikation 3.0 01.01.2014
528 6136-0-0186 6136/100 CB-102 Controlpanel B&O - BANG & OLUFSEN, color ETS3 Applikation 3.0 01.01.2014
529 6900-0-1697 6936/100 C-102 Controlpanel SMARTtouch - color ETS4/ETS5 Applikation 3.0 01.01.2014
530 6900-0-1697 6936/100 C-102 Controlpanel SMARTtouch - color ETS3 Applikation 3.0 01.01.2014
531 6900-0-1698 6936/100 CB-102 Controlpanel B&O - BANG & OLUFSEN, color ETS4/ETS5 Applikation 3.0 01.01.2014
532 6900-0-1698 6936/100 CB-102 Controlpanel B&O - BANG & OLUFSEN, color ETS3 Applikation 3.0 01.01.2014
533 6120-0-0075 6120/12-101-500 Busankoppler Firmware 0.1.5 29.07.2013 Info
534 6115-0-0205 6125/01-81-500 Bedienelement 1-fach - mit beiliegendem Busankoppler Firmware 0.1.4 29.07.2013 Info
535 6115-0-0206 6125/01-82-500 Bedienelement 1-fach - mit beiliegendem Busankoppler Firmware 0.1.4 29.07.2013 Info
536 6115-0-0207 6125/01-83-500 Bedienelement 1-fach - mit beiliegendem Busankoppler Firmware 0.1.4 29.07.2013 Info
537 6115-0-0214 6125/01-884-500 Bedienelement 1-fach - mit beiliegendem Busankoppler Firmware 0.1.4 29.07.2013 Info
538 6115-0-0215 6125/01-885-500 Bedienelement 1-fach - mit beiliegendem Busankoppler Firmware 0.1.4 29.07.2013 Info
539 6116-0-0195 6126/01-81-500 Bedienelement, 2-fach - mit beiliegendem Busankoppler Firmware 0.1.4 29.07.2013 Info
540 6116-0-0196 6126/01-82-500 Bedienelement, 2-fach - mit beiliegendem Busankoppler Firmware 0.1.4 29.07.2013 Info
541 6116-0-0197 6126/01-83-500 Bedienelement, 2-fach - mit beiliegendem Busankoppler Firmware 0.1.4 29.07.2013 Info
542 6116-0-0174 6126/01-84-500 Bedienelement, 2-fach - mit beiliegendem Busankoppler Firmware 0.1.4 29.07.2013 Info
543 6116-0-0204 6126/01-884-500 Bedienelement, 2-fach - mit beiliegendem Busankoppler Firmware 0.1.4 29.07.2013 Info
544 6116-0-0205 6126/01-885-500 Bedienelement, 2-fach - mit beiliegendem Busankoppler Firmware 0.1.4 29.07.2013 Info
545 6117-0-0221 6127/01-81-500 Bedienelement, 4-fach - mit beiliegendem Busankoppler Firmware 0.1.4 29.07.2013 Info
546 6117-0-0222 6127/01-82-500 Bedienelement, 4-fach - mit beiliegendem Busankoppler Firmware 0.1.4 29.07.2013 Info
547 6117-0-0223 6127/01-83-500 Bedienelement, 4-fach - mit beiliegendem Busankoppler Firmware 0.1.4 29.07.2013 Info
548 6117-0-0200 6127/01-84-500 Bedienelement, 4-fach - mit beiliegendem Busankoppler Firmware 0.1.4 29.07.2013 Info
549 6117-0-0230 6127/01-884-500 Bedienelement, 4-fach - mit beiliegendem Busankoppler Firmware 0.1.4 29.07.2013 Info
550 6117-0-0231 6127/01-885-500 Bedienelement, 4-fach - mit beiliegendem Busankoppler Firmware 0.1.4 29.07.2013 Info
551 6115-0-0183 6125/01-84-500 Bedienelement 1-fach - mit beiliegendem Busankoppler Firmware 0.1.4 29.07.2013 Info
552 6115-0-0212 6125/01-803-500 Bedienelement 1-fach - mit beiliegendem Busankoppler Firmware 0.1.4 29.07.2013 Info
553 6116-0-0202 6126/01-803-500 Bedienelement, 2-fach - mit beiliegendem Busankoppler Firmware 0.1.4 29.07.2013 Info
554 6117-0-0228 6127/01-803-500 Bedienelement, 4-fach - mit beiliegendem Busankoppler Firmware 0.1.4 29.07.2013 Info
555 6115-0-0449 6125/01-896-500 Bedienelement 1-fach Busch-axcent® - mit beiliegendem Busankoppler Firmware 0.1.4 29.07.2013 Info
556 6115-0-0211 6125/01-866-500 Bedienelement 1-fach pur edelstahl - mit beiliegendem Busankoppler Firmware 0.1.4 29.07.2013 Info
557 6116-0-0224 6126/01-896-500 Bedienelement, 2-fach Busch-axcent® - mit beiliegendem Busankoppler Firmware 0.1.4 29.07.2013 Info
558 6116-0-0201 6126/01-866-500 Bedienelement, 2-fach pur edelstahl - mit beiliegendem Busankoppler Firmware 0.1.4 29.07.2013 Info
559 6117-0-0249 6127/01-896-500 Bedienelement, 4-fach Busch-axcent® - mit beiliegendem Busankoppler Firmware 0.1.4 29.07.2013 Info
560 6117-0-0227 6127/01-866-500 Bedienelement, 4-fach pur edelstahl - mit beiliegendem Busankoppler Firmware 0.1.4 29.07.2013 Info
561 8136-0-0024 8136/09-811-500 Busch-ComfortPanel - Haussteuerung, Infotainment, Entertainment Zusatzsoftware: Makros für ETS 3 7.3.0.250 25.06.2013
562 8136-0-0024 8136/09-811-500 Busch-ComfortPanel - Haussteuerung, Infotainment, Entertainment ETS3 Applikation 3 25.06.2013
563 8136-0-0024 8136/09-811-500 Busch-ComfortPanel - Haussteuerung, Infotainment, Entertainment Zusatzsoftware: Installationsanleitung ETS App - Export for IP-Project 25.06.2013
564 8136-0-0024 8136/09-811-500 Busch-ComfortPanel - Haussteuerung, Infotainment, Entertainment ETS3 Applikation 3 25.06.2013
565 8136-0-0026 8136/09-825-500 Busch-ComfortPanel - Haussteuerung, Infotainment, Entertainment Zusatzsoftware: Makros für ETS 3 7.3.0.250 25.06.2013
566 8136-0-0026 8136/09-825-500 Busch-ComfortPanel - Haussteuerung, Infotainment, Entertainment ETS3 Applikation 3 25.06.2013
567 8136-0-0026 8136/09-825-500 Busch-ComfortPanel - Haussteuerung, Infotainment, Entertainment Zusatzsoftware: Installationsanleitung ETS App - Export for IP-Project 25.06.2013
568 8136-0-0026 8136/09-825-500 Busch-ComfortPanel - Haussteuerung, Infotainment, Entertainment ETS3 Applikation 3 25.06.2013
569 8136-0-0028 8136/12-811-500 Busch-ComfortPanel® 12.1" - Haussteuerung, Infotainment, Entertainment Zusatzsoftware: Makros für ETS 3 7.3.0.250 25.06.2013
570 8136-0-0028 8136/12-811-500 Busch-ComfortPanel® 12.1" - Haussteuerung, Infotainment, Entertainment ETS3 Applikation 3 25.06.2013
571 8136-0-0028 8136/12-811-500 Busch-ComfortPanel® 12.1" - Haussteuerung, Infotainment, Entertainment Zusatzsoftware: Installationsanleitung ETS App - Export for IP-Project 25.06.2013
572 8136-0-0028 8136/12-811-500 Busch-ComfortPanel® 12.1" - Haussteuerung, Infotainment, Entertainment ETS3 Applikation 3 25.06.2013
573 8136-0-0030 8136/12-825-500 Busch-ComfortPanel® 12.1" - Haussteuerung, Infotainment, Entertainment Zusatzsoftware: Makros für ETS 3 7.3.0.250 25.06.2013
574 8136-0-0030 8136/12-825-500 Busch-ComfortPanel® 12.1" - Haussteuerung, Infotainment, Entertainment ETS3 Applikation 3 25.06.2013
575 8136-0-0030 8136/12-825-500 Busch-ComfortPanel® 12.1" - Haussteuerung, Infotainment, Entertainment Zusatzsoftware: Installationsanleitung ETS App - Export for IP-Project 25.06.2013
576 8136-0-0030 8136/12-825-500 Busch-ComfortPanel® 12.1" - Haussteuerung, Infotainment, Entertainment ETS3 Applikation 3 25.06.2013
577 6133-0-0201 6149/21-500 Inbetriebnahmeschnittstelle/-adapter Zusatzsoftware: PowerTool 1.2.54 01.02.2013 Info
578 6132-0-0313 6179/01-204-500 Busch-Wächter® 220 MasterLINE KNX ETS3 Applikation 1.0 01.02.2013 Info
579 6132-0-0313 6179/01-204-500 Busch-Wächter® 220 MasterLINE KNX ETS4/ETS5 Applikation 1.0 01.02.2013 Info
580 6132-0-0314 6179/01-208-500 Busch-Wächter® 220 MasterLINE KNX ETS3 Applikation 1.0 01.02.2013 Info
581 6132-0-0314 6179/01-208-500 Busch-Wächter® 220 MasterLINE KNX ETS4/ETS5 Applikation 1.0 01.02.2013 Info
582 6132-0-0317 6179/02-204-500 Busch-Wächter® 220 MasterLINE KNX Premium ETS3 Applikation 1.0 01.02.2013 Info
583 6132-0-0317 6179/02-204-500 Busch-Wächter® 220 MasterLINE KNX Premium ETS4/ETS5 Applikation 1.0 01.02.2013 Info
584 6132-0-0318 6179/02-208-500 Busch-Wächter® 220 MasterLINE KNX Premium ETS3 Applikation 1.0 01.02.2013 Info
585 6132-0-0318 6179/02-208-500 Busch-Wächter® 220 MasterLINE KNX Premium ETS4/ETS5 Applikation 1.0 01.02.2013 Info
586 6310-0-0059 6920/12 UP-Netzankopplung Zusatzsoftware: PowerTool 1.2.55 01.02.2013 Info
587 6900-0-1703 6920/40 Busch-Powernet® KNX Serien-/Jalousieaktor 2/1-fach, UP Zusatzsoftware: PowerTool 01.02.2013 Info
588 6151-0-0245 6151/11 U-500 Schaltaktor, 16 A - 1-fach Aktor ETS3 Applikation 0.1 28.08.2012
589 6151-0-0245 6151/11 U-500 Schaltaktor, 16 A - 1-fach Aktor ETS3 Applikation 0.1 28.08.2012
590 6151-0-0245 6151/11 U-500 Schaltaktor, 16 A - 1-fach Aktor ETS4/ETS5 Applikation 0.1 28.08.2012
591 6152-0-0040 6152/11 U-500 Jalousieaktor - 1-fach Jalousieaktor ETS3 Applikation 1.1 28.08.2012
592 6152-0-0040 6152/11 U-500 Jalousieaktor - 1-fach Jalousieaktor ETS3 Applikation 1.1 28.08.2012
593 6152-0-0040 6152/11 U-500 Jalousieaktor - 1-fach Jalousieaktor ETS4/ETS5 Applikation 1.1 28.08.2012
594 6151-0-0247 6164/11 U-500 Heizungsaktor - 1-fach Aktor ETS3 Applikation 1.1 28.08.2012
595 6151-0-0247 6164/11 U-500 Heizungsaktor - 1-fach Aktor ETS3 Applikation 1.1 28.08.2012
596 6151-0-0247 6164/11 U-500 Heizungsaktor - 1-fach Aktor ETS4/ETS5 Applikation 1.1 28.08.2012
597 6151-0-0249 6173/11 U-500 Kombiaktor - 1x Jalousie/1x HKL ETS3 Applikation 1.1 28.08.2012
598 6151-0-0249 6173/11 U-500 Kombiaktor - 1x Jalousie/1x HKL ETS3 Applikation 1.1 28.08.2012
599 6151-0-0249 6173/11 U-500 Kombiaktor - 1x Jalousie/1x HKL ETS4/ETS5 Applikation 1.1 28.08.2012
600 6197-0-0036 6197/12-101-500 Universal-Dimmaktor 4x 210 W/VA bis 1x 840 W/VA - 1-4-fach Firmware 0.34 23.08.2012 Info
601 6197-0-0037 6197/13-101-500 Universal-Dimmaktor 4x 315 W/VA bis 1x 1260 W/VA - 1-4-fach Firmware 0.34 23.08.2012 Info
602 6197-0-0040 6197/52-101-500 Universal-Dimmaktor 1x 1260 W/VA - 1-fach ETS4/ETS5 Applikation 1.3 23.08.2012 Info
603 6197-0-0038 6197/14-101-500 Universal-Dimmaktor 6x 315 W/VA bis 1x 1890 W/VA - 1-6-fach Firmware 0.34 23.08.2012 Info
604 6197-0-0039 6197/15-101-500 Universal-Dimmaktor 4x 600 W/VA bis 1x 2400 W/VA - 1-4-fach Firmware 0.34 23.08.2012 Info
605 6197-0-0041 6197/53-101-500 Universal-Dimmaktor 1 x 2400 W/VA - 1-fach ETS4/ETS5 Applikation 1.3 23.08.2012 Info
606 6136-0-0185 6136/100 C-102-500 Controlpanel SMARTtouch - color Firmware: 6136/xxx-102-500 3.0.6 12.07.2012
607 6136-0-0186 6136/100 CB-102 Controlpanel B&O - BANG & OLUFSEN, color Firmware: 6x36/xxx-102 3.0.6 12.07.2012
608 6310-0-0059 6920/12 UP-Netzankopplung Firmware 0.27 12.07.2012 Info
609 6900-0-1697 6936/100 C-102 Controlpanel SMARTtouch - color Firmware: 6x36/xxx-102 3.0.6 12.07.2012
610 6900-0-1698 6936/100 CB-102 Controlpanel B&O - BANG & OLUFSEN, color Firmware: 6x36/xxx-102 3.0.6 12.07.2012
611 6770-0-0001 6770 WaveLine Medienkonverter TP-RF - KNX Twisted Pair/ KNX Funk ETS3 Applikation 1.0 03.01.2012
612 6132-0-0283 6122/02-81-500 Busch-Wächter® 180 UP Sensor Komfort II future® linear - mit Multilinse ETS-Applikation für PowerTool 1.0 11.07.2011 Info
613 6132-0-0283 6122/02-81-500 Busch-Wächter® 180 UP Sensor Komfort II future® linear - mit Multilinse ETS-Applikation für PowerTool 1.0 11.07.2011 Info
614 6132-0-0284 6122/02-82-500 Busch-Wächter® 180 UP Sensor Komfort II future® linear - mit Multilinse ETS-Applikation für PowerTool 1.0 11.07.2011 Info
615 6132-0-0284 6122/02-82-500 Busch-Wächter® 180 UP Sensor Komfort II future® linear - mit Multilinse ETS-Applikation für PowerTool 1.0 11.07.2011 Info
616 6132-0-0285 6122/02-83-500 Busch-Wächter® 180 UP Sensor Komfort II future® linear - mit Multilinse ETS-Applikation für PowerTool 1.0 11.07.2011 Info
617 6132-0-0285 6122/02-83-500 Busch-Wächter® 180 UP Sensor Komfort II future® linear - mit Multilinse ETS-Applikation für PowerTool 1.0 11.07.2011 Info
618 6132-0-0263 6122/02-84-500 Busch-Wächter® 180 UP Sensor Komfort II future® linear - mit Multilinse ETS-Applikation für PowerTool 1.0 11.07.2011 Info
619 6132-0-0263 6122/02-84-500 Busch-Wächter® 180 UP Sensor Komfort II future® linear - mit Multilinse ETS-Applikation für PowerTool 1.0 11.07.2011 Info
620 6132-0-0292 6122/02-884-500 Busch-Wächter® 180 UP Sensor Komfort II future® linear - mit Multilinse ETS-Applikation für PowerTool 1.0 11.07.2011 Info
621 6132-0-0292 6122/02-884-500 Busch-Wächter® 180 UP Sensor Komfort II future® linear - mit Multilinse ETS-Applikation für PowerTool 1.0 11.07.2011 Info
622 6132-0-0293 6122/02-885-500 Busch-Wächter® 180 UP Sensor Komfort II future® linear - mit Multilinse ETS-Applikation für PowerTool 1.0 11.07.2011 Info
623 6132-0-0293 6122/02-885-500 Busch-Wächter® 180 UP Sensor Komfort II future® linear - mit Multilinse ETS-Applikation für PowerTool 1.0 11.07.2011 Info
624 6132-0-0290 6122/02-803-500 Busch-Wächter® 180 UP Sensor Komfort II solo® - mit Multilinse ETS-Applikation für PowerTool 1.0 11.07.2011 Info
625 6132-0-0290 6122/02-803-500 Busch-Wächter® 180 UP Sensor Komfort II solo® - mit Multilinse ETS-Applikation für PowerTool 1.0 11.07.2011 Info
626 6132-0-0324 6122/02-896-500 Busch-Wächter® 180 UP Sensor Komfort II Busch-axcent® - mit Multilinse ETS-Applikation für PowerTool 1.0 11.07.2011 Info
627 6132-0-0324 6122/02-896-500 Busch-Wächter® 180 UP Sensor Komfort II Busch-axcent® - mit Multilinse ETS-Applikation für PowerTool 1.0 11.07.2011 Info
628 6132-0-0289 6122/02-866-500 Busch-Wächter® 180 UP Sensor Komfort II pur edelstahl - mit Multilinse ETS-Applikation für PowerTool 1.0 11.07.2011 Info
629 6132-0-0289 6122/02-866-500 Busch-Wächter® 180 UP Sensor Komfort II pur edelstahl - mit Multilinse ETS-Applikation für PowerTool 1.0 11.07.2011 Info
630 6900-0-1703 6920/40 Busch-Powernet® KNX Serien-/Jalousieaktor 2/1-fach, UP ETS3 Applikation 1.0 04.07.2011 Info
631 6320-0-0002 6320/10-20-500 Bedienelement 1/2-fach, mit Infrarotschnittstelle alpha - Busch-triton® ETS3 Applikation 1.0 22.03.2011
632 6320-0-0002 6320/10-20-500 Bedienelement 1/2-fach, mit Infrarotschnittstelle alpha - Busch-triton® ETS4/ETS5 Applikation 1.0 22.03.2011
633 6320-0-0004 6320/10-24G-500 Bedienelement 1/2-fach, mit Infrarotschnittstelle alpha - Busch-triton® ETS3 Applikation 1.0 22.03.2011
634 6320-0-0004 6320/10-24G-500 Bedienelement 1/2-fach, mit Infrarotschnittstelle alpha - Busch-triton® ETS4/ETS5 Applikation 1.0 22.03.2011
635 6320-0-0010 6320/10-260-500 Bedienelement 1/2-fach, mit Infrarotschnittstelle alpha - Busch-triton® ETS3 Applikation 1.0 22.03.2011
636 6320-0-0010 6320/10-260-500 Bedienelement 1/2-fach, mit Infrarotschnittstelle alpha - Busch-triton® ETS4/ETS5 Applikation 1.0 22.03.2011
637 6320-0-0006 6320/10-79-500 Bedienelement 1/2-fach, mit Infrarotschnittstelle impuls - Busch-triton® ETS3 Applikation 1.0 22.03.2011
638 6320-0-0006 6320/10-79-500 Bedienelement 1/2-fach, mit Infrarotschnittstelle impuls - Busch-triton® ETS4/ETS5 Applikation 1.0 22.03.2011
639 6320-0-0008 6320/10-83-500 Bedienelement 1/2-fach, mit Infrarotschnittstelle future® linear - Busch-triton® ETS3 Applikation 1.0 22.03.2011
640 6320-0-0008 6320/10-83-500 Bedienelement 1/2-fach, mit Infrarotschnittstelle future® linear - Busch-triton® ETS4/ETS5 Applikation 1.0 22.03.2011
641 6320-0-0012 6320/30-20-500 Bedienelement 3/6-fach, mit Infrarotschnittstelle alpha - Busch-triton® ETS3 Applikation 1.0 22.03.2011
642 6320-0-0012 6320/30-20-500 Bedienelement 3/6-fach, mit Infrarotschnittstelle alpha - Busch-triton® ETS4/ETS5 Applikation 1.0 22.03.2011
643 6320-0-0014 6320/30-24G-500 Bedienelement 3/6-fach, mit Infrarotschnittstelle alpha - Busch-triton® ETS3 Applikation 1.0 22.03.2011
644 6320-0-0014 6320/30-24G-500 Bedienelement 3/6-fach, mit Infrarotschnittstelle alpha - Busch-triton® ETS4/ETS5 Applikation 1.0 22.03.2011
645 6320-0-0020 6320/30-260-500 Bedienelement 3/6-fach, mit Infrarotschnittstelle alpha - Busch-triton® ETS3 Applikation 1.0 22.03.2011
646 6320-0-0020 6320/30-260-500 Bedienelement 3/6-fach, mit Infrarotschnittstelle alpha - Busch-triton® ETS4/ETS5 Applikation 1.0 22.03.2011
647 6320-0-0016 6320/30-79-500 Bedienelement 3/6-fach, mit Infrarotschnittstelle impuls - Busch-triton® ETS3 Applikation 1.0 22.03.2011
648 6320-0-0016 6320/30-79-500 Bedienelement 3/6-fach, mit Infrarotschnittstelle impuls - Busch-triton® ETS4/ETS5 Applikation 1.0 22.03.2011
649 6320-0-0018 6320/30-83-500 Bedienelement 3/6-fach, mit Infrarotschnittstelle future® linear - Busch-triton® ETS3 Applikation 1.0 22.03.2011
650 6320-0-0018 6320/30-83-500 Bedienelement 3/6-fach, mit Infrarotschnittstelle future® linear - Busch-triton® ETS4/ETS5 Applikation 1.0 22.03.2011
651 6320-0-0032 6320/50-20-500 Bedienelement 5/10-fach, mit Infrarotschnittstelle alpha - Busch-triton® ETS3 Applikation 1.0 22.03.2011
652 6320-0-0032 6320/50-20-500 Bedienelement 5/10-fach, mit Infrarotschnittstelle alpha - Busch-triton® ETS4/ETS5 Applikation 1.0 22.03.2011
653 6320-0-0034 6320/50-24G-500 Bedienelement 5/10-fach, mit Infrarotschnittstelle alpha - Busch-triton® ETS3 Applikation 1.0 22.03.2011
654 6320-0-0034 6320/50-24G-500 Bedienelement 5/10-fach, mit Infrarotschnittstelle alpha - Busch-triton® ETS4/ETS5 Applikation 1.0 22.03.2011
655 6320-0-0040 6320/50-260-500 Bedienelement 5/10-fach, mit Infrarotschnittstelle alpha - Busch-triton® ETS3 Applikation 1.0 22.03.2011
656 6320-0-0040 6320/50-260-500 Bedienelement 5/10-fach, mit Infrarotschnittstelle alpha - Busch-triton® ETS4/ETS5 Applikation 1.0 22.03.2011
657 6320-0-0036 6320/50-79-500 Bedienelement 5/10-fach, mit Infrarotschnittstelle impuls - Busch-triton® ETS3 Applikation 1.0 22.03.2011
658 6320-0-0036 6320/50-79-500 Bedienelement 5/10-fach, mit Infrarotschnittstelle impuls - Busch-triton® ETS4/ETS5 Applikation 1.0 22.03.2011
659 6320-0-0038 6320/50-83-500 Bedienelement 5/10-fach, mit Infrarotschnittstelle future® linear - Busch-triton® ETS3 Applikation 1.0 22.03.2011
660 6320-0-0038 6320/50-83-500 Bedienelement 5/10-fach, mit Infrarotschnittstelle future® linear - Busch-triton® ETS4/ETS5 Applikation 1.0 22.03.2011
661 6115-0-0216 6125/02-81-500 Bedienelement, 1/2-fach - Multifunktion/Farbkonzept ETS-Applikation für PowerTool 1.0 24.01.2011 Info
662 6115-0-0216 6125/02-81-500 Bedienelement, 1/2-fach - Multifunktion/Farbkonzept ETS4/ETS5 Applikation 1.0 24.01.2011 Info
663 6115-0-0217 6125/02-82-500 Bedienelement, 1/2-fach - Multifunktion/Farbkonzept ETS-Applikation für PowerTool 1.0 24.01.2011 Info
664 6115-0-0217 6125/02-82-500 Bedienelement, 1/2-fach - Multifunktion/Farbkonzept ETS4/ETS5 Applikation 1.0 24.01.2011 Info
665 6116-0-0206 6126/02-81-500 Bedienelement, 2/4-fach - Multifunktion/Farbkonzept ETS-Applikation für PowerTool 1.0 24.01.2011 Info
666 6116-0-0207 6126/02-82-500 Bedienelement, 2/4-fach - Multifunktion/Farbkonzept ETS-Applikation für PowerTool 1.0 24.01.2011 Info
667 6134-0-0284 6128/01-81-500 Bedienelement 2/4-fach, mit RTR - Multifunktion/Farbkonzept ETS-Applikation für PowerTool 1.0 24.01.2011 Info
668 6134-0-0284 6128/01-81-500 Bedienelement 2/4-fach, mit RTR - Multifunktion/Farbkonzept ETS-Applikation für PowerTool 1.0 24.01.2011 Info
669 6134-0-0285 6128/01-82-500 Bedienelement 2/4-fach, mit RTR - Multifunktion/Farbkonzept ETS-Applikation für PowerTool 1.0 24.01.2011 Info
670 6134-0-0285 6128/01-82-500 Bedienelement 2/4-fach, mit RTR - Multifunktion/Farbkonzept ETS-Applikation für PowerTool 1.0 24.01.2011 Info
671 6117-0-0232 6127/02-81-500 Bedienelement, 4/8-fach - Multifunktion/Farbkonzept ETS-Applikation für PowerTool 1.0 24.01.2011 Info
672 6117-0-0233 6127/02-82-500 Bedienelement, 4/8-fach - Multifunktion/Farbkonzept ETS-Applikation für PowerTool 1.0 24.01.2011 Info
673 6115-0-0218 6125/02-83-500 Bedienelement, 1/2-fach future® linear - Multifunktion/Farbkonzept ETS-Applikation für PowerTool 1.0 24.01.2011 Info
674 6115-0-0218 6125/02-83-500 Bedienelement, 1/2-fach future® linear - Multifunktion/Farbkonzept ETS4/ETS5 Applikation 1.0 24.01.2011 Info
675 6115-0-0219 6125/02-84-500 Bedienelement, 1/2-fach future® linear - Multifunktion/Farbkonzept ETS-Applikation für PowerTool 1.0 24.01.2011 Info
676 6115-0-0219 6125/02-84-500 Bedienelement, 1/2-fach future® linear - Multifunktion/Farbkonzept ETS4/ETS5 Applikation 1.0 24.01.2011 Info
677 6115-0-0226 6125/02-884-500 Bedienelement, 1/2-fach future® linear - Multifunktion/Farbkonzept ETS-Applikation für PowerTool 1.0 24.01.2011 Info
678 6115-0-0226 6125/02-884-500 Bedienelement, 1/2-fach future® linear - Multifunktion/Farbkonzept ETS4/ETS5 Applikation 1.0 24.01.2011 Info
679 6115-0-0227 6125/02-885-500 Bedienelement, 1/2-fach future® linear - Multifunktion/Farbkonzept ETS-Applikation für PowerTool 1.0 24.01.2011 Info
680 6115-0-0227 6125/02-885-500 Bedienelement, 1/2-fach future® linear - Multifunktion/Farbkonzept ETS4/ETS5 Applikation 1.0 24.01.2011 Info
681 6115-0-0224 6125/02-803-500 Bedienelement, 1/2-fach solo® - Multifunktion/Farbkonzept ETS-Applikation für PowerTool 1.0 24.01.2011 Info
682 6115-0-0224 6125/02-803-500 Bedienelement, 1/2-fach solo® - Multifunktion/Farbkonzept ETS4/ETS5 Applikation 1.0 24.01.2011 Info
683 6115-0-0451 6125/02-896-500 Bedienelement, 1/2-fach Busch-axcent® - Multifunktion/Farbkonzept ETS-Applikation für PowerTool 1.0 24.01.2011 Info
684 6115-0-0451 6125/02-896-500 Bedienelement, 1/2-fach Busch-axcent® - Multifunktion/Farbkonzept ETS4/ETS5 Applikation 1.0 24.01.2011 Info
685 6115-0-0223 6125/02-866-500 Bedienelement, 1/2-fach pur edelstahl - Multifunktion/Farbkonzept ETS-Applikation für PowerTool 1.0 24.01.2011 Info
686 6115-0-0223 6125/02-866-500 Bedienelement, 1/2-fach pur edelstahl - Multifunktion/Farbkonzept ETS4/ETS5 Applikation 1.0 24.01.2011 Info
687 6116-0-0208 6126/02-83-500 Bedienelement, 2/4-fach future® linear - Multifunktion/Farbkonzept ETS-Applikation für PowerTool 1.0 24.01.2011 Info
688 6116-0-0209 6126/02-84-500 Bedienelement, 2/4-fach future® linear - Multifunktion/Farbkonzept ETS-Applikation für PowerTool 1.0 24.01.2011 Info
689 6116-0-0216 6126/02-884-500 Bedienelement, 2/4-fach future® linear - Multifunktion/Farbkonzept ETS-Applikation für PowerTool 1.0 24.01.2011 Info
690 6116-0-0217 6126/02-885-500 Bedienelement, 2/4-fach future® linear - Multifunktion/Farbkonzept ETS-Applikation für PowerTool 1.0 24.01.2011 Info
691 6116-0-0214 6126/02-803-500 Bedienelement, 2/4-fach solo® - Multifunktion/Farbkonzept ETS-Applikation für PowerTool 1.0 24.01.2011 Info
692 6116-0-0226 6126/02-896-500 Bedienelement, 2/4-fach Busch-axcent® - Multifunktion/Farbkonzept ETS-Applikation für PowerTool 1.0 24.01.2011 Info
693 6116-0-0213 6126/02-866-500 Bedienelement, 2/4-fach pur edelstahl - Multifunktion/Farbkonzept ETS-Applikation für PowerTool 1.0 24.01.2011 Info
694 6134-0-0286 6128/01-83-500 Bedienelement 2/4-fach, mit RTR future® linear - Multifunktion/Farbkonzept ETS-Applikation für PowerTool 1.0 24.01.2011 Info
695 6134-0-0286 6128/01-83-500 Bedienelement 2/4-fach, mit RTR future® linear - Multifunktion/Farbkonzept ETS-Applikation für PowerTool 1.0 24.01.2011 Info
696 6134-0-0261 6128/01-84-500 Bedienelement 2/4-fach, mit RTR future® linear - Multifunktion/Farbkonzept ETS-Applikation für PowerTool 1.0 24.01.2011 Info
697 6134-0-0261 6128/01-84-500 Bedienelement 2/4-fach, mit RTR future® linear - Multifunktion/Farbkonzept ETS-Applikation für PowerTool 1.0 24.01.2011 Info
698 6134-0-0293 6128/01-884-500 Bedienelement 2/4-fach, mit RTR future® linear - Multifunktion/Farbkonzept ETS-Applikation für PowerTool 1.0 24.01.2011 Info
699 6134-0-0293 6128/01-884-500 Bedienelement 2/4-fach, mit RTR future® linear - Multifunktion/Farbkonzept ETS-Applikation für PowerTool 1.0 24.01.2011 Info
700 6134-0-0294 6128/01-885-500 Bedienelement 2/4-fach, mit RTR future® linear - Multifunktion/Farbkonzept ETS-Applikation für PowerTool 1.0 24.01.2011 Info
701 6134-0-0294 6128/01-885-500 Bedienelement 2/4-fach, mit RTR future® linear - Multifunktion/Farbkonzept ETS-Applikation für PowerTool 1.0 24.01.2011 Info
702 6134-0-0291 6128/01-803-500 Bedienelement 2/4-fach, mit RTR solo® - Multifunktion/Farbkonzept ETS-Applikation für PowerTool 1.0 24.01.2011 Info
703 6134-0-0291 6128/01-803-500 Bedienelement 2/4-fach, mit RTR solo® - Multifunktion/Farbkonzept ETS-Applikation für PowerTool 1.0 24.01.2011 Info
704 6134-0-0306 6128/01-896-500 Bedienelement 2/4-fach, mit RTR Busch-axcent® - Multifunktion/Farbkonzept ETS-Applikation für PowerTool 1.0 24.01.2011 Info
705 6134-0-0306 6128/01-896-500 Bedienelement 2/4-fach, mit RTR Busch-axcent® - Multifunktion/Farbkonzept ETS-Applikation für PowerTool 1.0 24.01.2011 Info
706 6134-0-0290 6128/01-866-500 Bedienelement 2/4-fach, mit RTR pur edelstahl - Multifunktion/Farbkonzept ETS-Applikation für PowerTool 1.0 24.01.2011 Info
707 6134-0-0290 6128/01-866-500 Bedienelement 2/4-fach, mit RTR pur edelstahl - Multifunktion/Farbkonzept ETS-Applikation für PowerTool 1.0 24.01.2011 Info
708 6135-0-0156 6129/01-81-500 Bedienelement 3/6-fach, mit IR-Schnittstelle future® linear - Multifunktion/Farbkonzept ETS-Applikation für PowerTool 1.0 24.01.2011 Info
709 6135-0-0157 6129/01-82-500 Bedienelement 3/6-fach, mit IR-Schnittstelle future® linear - Multifunktion/Farbkonzept ETS-Applikation für PowerTool 1.0 24.01.2011 Info
710 6135-0-0158 6129/01-83-500 Bedienelement 3/6-fach, mit IR-Schnittstelle future® linear - Multifunktion/Farbkonzept ETS-Applikation für PowerTool 1.0 24.01.2011 Info
711 6135-0-0146 6129/01-84-500 Bedienelement 3/6-fach, mit IR-Schnittstelle future® linear - Multifunktion/Farbkonzept ETS-Applikation für PowerTool 1.0 24.01.2011 Info
712 6135-0-0165 6129/01-884-500 Bedienelement 3/6-fach, mit IR-Schnittstelle future® linear - Multifunktion/Farbkonzept ETS-Applikation für PowerTool 1.0 24.01.2011 Info
713 6135-0-0166 6129/01-885-500 Bedienelement 3/6-fach, mit IR-Schnittstelle future® linear - Multifunktion/Farbkonzept ETS-Applikation für PowerTool 1.0 24.01.2011 Info
714 6135-0-0163 6129/01-803-500 Bedienelement 3/6-fach, mit IR-Schnittstelle solo® - Multifunktion/Farbkonzept ETS-Applikation für PowerTool 1.0 24.01.2011 Info
715 6135-0-0170 6129/01-896-500 Bedienelement 3/6-fach, mit IR-Schnittstelle Busch-axcent® - Multifunktion/Farbkonzept ETS-Applikation für PowerTool 1.0 24.01.2011 Info
716 6135-0-0162 6129/01-866-500 Bedienelement 3/6-fach, mit IR-Schnittstelle pur edelstahl - Multifunktion/Farbkonzept ETS-Applikation für PowerTool 1.0 24.01.2011 Info
717 6117-0-0234 6127/02-83-500 Bedienelement, 4/8-fach future® linear - Multifunktion/Farbkonzept ETS-Applikation für PowerTool 1.0 24.01.2011 Info
718 6117-0-0235 6127/02-84-500 Bedienelement, 4/8-fach future® linear - Multifunktion/Farbkonzept ETS-Applikation für PowerTool 1.0 24.01.2011 Info
719 6117-0-0242 6127/02-884-500 Bedienelement, 4/8-fach future® linear - Multifunktion/Farbkonzept ETS-Applikation für PowerTool 1.0 24.01.2011 Info
720 6117-0-0243 6127/02-885-500 Bedienelement, 4/8-fach future® linear - Multifunktion/Farbkonzept ETS-Applikation für PowerTool 1.0 24.01.2011 Info
721 6117-0-0240 6127/02-803-500 Bedienelement, 4/8-fach solo® - Multifunktion/Farbkonzept ETS-Applikation für PowerTool 1.0 24.01.2011 Info
722 6117-0-0251 6127/02-896-500 Bedienelement, 4/8-fach Busch-axcent® - Multifunktion/Farbkonzept ETS-Applikation für PowerTool 1.0 24.01.2011 Info
723 6117-0-0239 6127/02-866-500 Bedienelement, 4/8-fach pur edelstahl - Multifunktion/Farbkonzept ETS-Applikation für PowerTool 1.0 24.01.2011 Info
724 6134-0-0295 6124/01-81-500 Raumtemperaturregler future® linear - Heiz-/Kühlbetrieb/Farbkonzept ETS-Applikation für PowerTool 1.0 24.01.2011 Info
725 6134-0-0295 6124/01-81-500 Raumtemperaturregler future® linear - Heiz-/Kühlbetrieb/Farbkonzept ETS-Applikation für PowerTool 1.0 24.01.2011 Info
726 6134-0-0274 6124/01-82-500 Raumtemperaturregler future® linear - Heiz-/Kühlbetrieb/Farbkonzept ETS-Applikation für PowerTool 1.0 24.01.2011 Info
727 6134-0-0274 6124/01-82-500 Raumtemperaturregler future® linear - Heiz-/Kühlbetrieb/Farbkonzept ETS-Applikation für PowerTool 1.0 24.01.2011 Info
728 6134-0-0275 6124/01-83-500 Raumtemperaturregler future® linear - Heiz-/Kühlbetrieb/Farbkonzept ETS-Applikation für PowerTool 1.0 24.01.2011 Info
729 6134-0-0275 6124/01-83-500 Raumtemperaturregler future® linear - Heiz-/Kühlbetrieb/Farbkonzept ETS-Applikation für PowerTool 1.0 24.01.2011 Info
730 6134-0-0248 6124/01-84-500 Raumtemperaturregler future® linear - Heiz-/Kühlbetrieb/Farbkonzept ETS-Applikation für PowerTool 1.0 24.01.2011 Info
731 6134-0-0248 6124/01-84-500 Raumtemperaturregler future® linear - Heiz-/Kühlbetrieb/Farbkonzept ETS-Applikation für PowerTool 1.0 24.01.2011 Info
732 6134-0-0282 6124/01-884-500 Raumtemperaturregler future® linear - Heiz-/Kühlbetrieb/Farbkonzept ETS-Applikation für PowerTool 1.0 24.01.2011 Info
733 6134-0-0282 6124/01-884-500 Raumtemperaturregler future® linear - Heiz-/Kühlbetrieb/Farbkonzept ETS-Applikation für PowerTool 1.0 24.01.2011 Info
734 6134-0-0283 6124/01-885-500 Raumtemperaturregler future® linear - Heiz-/Kühlbetrieb/Farbkonzept ETS-Applikation für PowerTool 1.0 24.01.2011 Info
735 6134-0-0283 6124/01-885-500 Raumtemperaturregler future® linear - Heiz-/Kühlbetrieb/Farbkonzept ETS-Applikation für PowerTool 1.0 24.01.2011 Info
736 6134-0-0280 6124/01-803-500 Raumtemperaturregler solo® - Heiz-/Kühlbetrieb/Farbkonzept ETS-Applikation für PowerTool 1.0 24.01.2011 Info
737 6134-0-0280 6124/01-803-500 Raumtemperaturregler solo® - Heiz-/Kühlbetrieb/Farbkonzept ETS-Applikation für PowerTool 1.0 24.01.2011 Info
738 6134-0-0304 6124/01-896-500 Raumtemperaturregler Busch-axcent® - Heiz-/Kühlbetrieb/Farbkonzept ETS-Applikation für PowerTool 1.0 24.01.2011 Info
739 6134-0-0304 6124/01-896-500 Raumtemperaturregler Busch-axcent® - Heiz-/Kühlbetrieb/Farbkonzept ETS-Applikation für PowerTool 1.0 24.01.2011 Info
740 6134-0-0279 6124/01-866-500 Raumtemperaturregler pur edelstahl - Heiz-/Kühlbetrieb/Farbkonzept ETS-Applikation für PowerTool 1.0 24.01.2011 Info
741 6134-0-0279 6124/01-866-500 Raumtemperaturregler pur edelstahl - Heiz-/Kühlbetrieb/Farbkonzept ETS-Applikation für PowerTool 1.0 24.01.2011 Info
742 6115-0-0205 6125/01-81-500 Bedienelement 1-fach - mit beiliegendem Busankoppler ETS-Applikation für PowerTool 1.0 24.01.2011 Info
743 6115-0-0206 6125/01-82-500 Bedienelement 1-fach - mit beiliegendem Busankoppler ETS-Applikation für PowerTool 1.0 24.01.2011 Info
744 6115-0-0207 6125/01-83-500 Bedienelement 1-fach - mit beiliegendem Busankoppler ETS-Applikation für PowerTool 1.0 24.01.2011 Info
745 6115-0-0214 6125/01-884-500 Bedienelement 1-fach - mit beiliegendem Busankoppler ETS-Applikation für PowerTool 1.0 24.01.2011 Info
746 6115-0-0215 6125/01-885-500 Bedienelement 1-fach - mit beiliegendem Busankoppler ETS-Applikation für PowerTool 1.0 24.01.2011 Info
747 6116-0-0195 6126/01-81-500 Bedienelement, 2-fach - mit beiliegendem Busankoppler ETS-Applikation für PowerTool 1.0 24.01.2011 Info
748 6116-0-0196 6126/01-82-500 Bedienelement, 2-fach - mit beiliegendem Busankoppler ETS-Applikation für PowerTool 1.0 24.01.2011 Info
749 6116-0-0197 6126/01-83-500 Bedienelement, 2-fach - mit beiliegendem Busankoppler ETS-Applikation für PowerTool 1.0 24.01.2011 Info
750 6116-0-0174 6126/01-84-500 Bedienelement, 2-fach - mit beiliegendem Busankoppler ETS-Applikation für PowerTool 1.0 24.01.2011 Info
751 6116-0-0204 6126/01-884-500 Bedienelement, 2-fach - mit beiliegendem Busankoppler ETS-Applikation für PowerTool 1.0 24.01.2011 Info
752 6116-0-0205 6126/01-885-500 Bedienelement, 2-fach - mit beiliegendem Busankoppler ETS-Applikation für PowerTool 1.0 24.01.2011 Info
753 6117-0-0221 6127/01-81-500 Bedienelement, 4-fach - mit beiliegendem Busankoppler ETS-Applikation für PowerTool 1.0 24.01.2011 Info
754 6117-0-0222 6127/01-82-500 Bedienelement, 4-fach - mit beiliegendem Busankoppler ETS-Applikation für PowerTool 1.0 24.01.2011 Info
755 6117-0-0223 6127/01-83-500 Bedienelement, 4-fach - mit beiliegendem Busankoppler ETS-Applikation für PowerTool 1.0 24.01.2011 Info
756 6117-0-0200 6127/01-84-500 Bedienelement, 4-fach - mit beiliegendem Busankoppler ETS-Applikation für PowerTool 1.0 24.01.2011 Info
757 6117-0-0230 6127/01-884-500 Bedienelement, 4-fach - mit beiliegendem Busankoppler ETS-Applikation für PowerTool 1.0 24.01.2011 Info
758 6117-0-0231 6127/01-885-500 Bedienelement, 4-fach - mit beiliegendem Busankoppler ETS-Applikation für PowerTool 1.0 24.01.2011 Info
759 6115-0-0183 6125/01-84-500 Bedienelement 1-fach - mit beiliegendem Busankoppler ETS-Applikation für PowerTool 1.0 24.01.2011 Info
760 6115-0-0212 6125/01-803-500 Bedienelement 1-fach - mit beiliegendem Busankoppler ETS-Applikation für PowerTool 1.0 24.01.2011 Info
761 6116-0-0202 6126/01-803-500 Bedienelement, 2-fach - mit beiliegendem Busankoppler ETS-Applikation für PowerTool 1.0 24.01.2011 Info
762 6117-0-0228 6127/01-803-500 Bedienelement, 4-fach - mit beiliegendem Busankoppler ETS-Applikation für PowerTool 1.0 24.01.2011 Info
763 6115-0-0449 6125/01-896-500 Bedienelement 1-fach Busch-axcent® - mit beiliegendem Busankoppler ETS-Applikation für PowerTool 1.0 24.01.2011 Info
764 6115-0-0211 6125/01-866-500 Bedienelement 1-fach pur edelstahl - mit beiliegendem Busankoppler ETS-Applikation für PowerTool 1.0 24.01.2011 Info
765 6116-0-0224 6126/01-896-500 Bedienelement, 2-fach Busch-axcent® - mit beiliegendem Busankoppler ETS-Applikation für PowerTool 1.0 24.01.2011 Info
766 6116-0-0201 6126/01-866-500 Bedienelement, 2-fach pur edelstahl - mit beiliegendem Busankoppler ETS-Applikation für PowerTool 1.0 24.01.2011 Info
767 6117-0-0249 6127/01-896-500 Bedienelement, 4-fach Busch-axcent® - mit beiliegendem Busankoppler ETS-Applikation für PowerTool 1.0 24.01.2011 Info
768 6117-0-0227 6127/01-866-500 Bedienelement, 4-fach pur edelstahl - mit beiliegendem Busankoppler ETS-Applikation für PowerTool 1.0 24.01.2011 Info
769 6138-0-0005 6138/11-83-500 Raumtemperaturregler Fan Coil mit Display, AP - mit integriertem Busankoppler ETS3 Applikation 1.0 21.10.2009
770 6138-0-0005 6138/11-83-500 Raumtemperaturregler Fan Coil mit Display, AP - mit integriertem Busankoppler ETS3 Applikation 1.0 21.10.2009
771 6138-0-0005 6138/11-83-500 Raumtemperaturregler Fan Coil mit Display, AP - mit integriertem Busankoppler ETS4/ETS5 Applikation 1.0 21.10.2009
772 6138-0-0003 6138/11-84-500 Raumtemperaturregler Fan Coil mit Display, AP - mit integriertem Busankoppler ETS3 Applikation 1.0 21.10.2009
773 6138-0-0003 6138/11-84-500 Raumtemperaturregler Fan Coil mit Display, AP - mit integriertem Busankoppler ETS3 Applikation 1.0 21.10.2009
774 6138-0-0003 6138/11-84-500 Raumtemperaturregler Fan Coil mit Display, AP - mit integriertem Busankoppler ETS4/ETS5 Applikation 1.0 21.10.2009
775 6136-0-0172 6128/10-84-101 Wochenschaltuhr Tastsensor 2-fach ETS2 Applikation 1.0 11.06.2008
776 6136-0-0172 6128/10-84-101 Wochenschaltuhr Tastsensor 2-fach ETS4/ETS5 Applikation 1.0 11.06.2008
777 6136-0-0169 6128/10-81-101 Wochenschaltuhr Tastsensor 2-fach ETS2 Applikation 1.0 11.06.2008
778 6136-0-0169 6128/10-81-101 Wochenschaltuhr Tastsensor 2-fach ETS4/ETS5 Applikation 1.0 11.06.2008
779 6136-0-0170 6128/10-82-101 Wochenschaltuhr Tastsensor 2-fach ETS2 Applikation 1.0 11.06.2008
780 6136-0-0170 6128/10-82-101 Wochenschaltuhr Tastsensor 2-fach ETS4/ETS5 Applikation 1.0 11.06.2008
781 6136-0-0179 6128/10-866-101 Wochenschaltuhr Tastsensor 2-fach ETS2 Applikation 1.0 11.06.2008
782 6136-0-0179 6128/10-866-101 Wochenschaltuhr Tastsensor 2-fach ETS4/ETS5 Applikation 1.0 11.06.2008
783 6136-0-0171 6128/10-83-101 Wochenschaltuhr Tastsensor 2-fach ETS2 Applikation 1.0 11.06.2008
784 6136-0-0171 6128/10-83-101 Wochenschaltuhr Tastsensor 2-fach ETS4/ETS5 Applikation 1.0 11.06.2008
785 6136-0-0191 6128/10-803-101 Wochenschaltuhr Tastsensor 2-fach ETS2 Applikation 1.0 11.06.2008
786 6136-0-0191 6128/10-803-101 Wochenschaltuhr Tastsensor 2-fach ETS4/ETS5 Applikation 1.0 11.06.2008
787 6136-0-0194 6128/10-884-101 Wochenschaltuhr Tastsensor 2-fach future® linear ETS2 Applikation 1.0 11.06.2008
788 6136-0-0194 6128/10-884-101 Wochenschaltuhr Tastsensor 2-fach future® linear ETS4/ETS5 Applikation 1.0 11.06.2008
789 6136-0-0193 6128/10-885-101 Wochenschaltuhr Tastsensor 2-fach future® linear ETS2 Applikation 1.0 11.06.2008
790 6136-0-0193 6128/10-885-101 Wochenschaltuhr Tastsensor 2-fach future® linear ETS4/ETS5 Applikation 1.0 11.06.2008
791 6730-0-0014 6730-81 LED-Anzeige WaveLINE ETS2 Applikation 1.0 10.10.2007
792 6730-0-0014 6730-81 LED-Anzeige WaveLINE ETS2 Applikation 1.0 10.10.2007
793 6730-0-0014 6730-81 LED-Anzeige WaveLINE ETS4/ETS5 Applikation 1.0 10.10.2007
794 6730-0-0014 6730-81 LED-Anzeige WaveLINE ETS4/ETS5 Applikation 1.0 10.10.2007
795 6730-0-0015 6730-82 LED-Anzeige WaveLINE ETS2 Applikation 1.0 10.10.2007
796 6730-0-0015 6730-82 LED-Anzeige WaveLINE ETS2 Applikation 1.0 10.10.2007
797 6730-0-0015 6730-82 LED-Anzeige WaveLINE ETS4/ETS5 Applikation 1.0 10.10.2007
798 6730-0-0015 6730-82 LED-Anzeige WaveLINE ETS4/ETS5 Applikation 1.0 10.10.2007
799 6730-0-0017 6730-84 LED-Anzeige WaveLINE ETS2 Applikation 1.0 10.10.2007
800 6730-0-0017 6730-84 LED-Anzeige WaveLINE ETS2 Applikation 1.0 10.10.2007
801 6730-0-0017 6730-84 LED-Anzeige WaveLINE ETS4/ETS5 Applikation 1.0 10.10.2007
802 6730-0-0017 6730-84 LED-Anzeige WaveLINE ETS4/ETS5 Applikation 1.0 10.10.2007
803 6730-0-0023 6730-866 LED-Anzeige WaveLINE ETS2 Applikation 1.0 10.10.2007
804 6730-0-0023 6730-866 LED-Anzeige WaveLINE ETS2 Applikation 1.0 10.10.2007
805 6730-0-0023 6730-866 LED-Anzeige WaveLINE ETS4/ETS5 Applikation 1.0 10.10.2007
806 6730-0-0023 6730-866 LED-Anzeige WaveLINE ETS4/ETS5 Applikation 1.0 10.10.2007
807 6730-0-0025 6730-803 LED-Anzeige WaveLINE ETS2 Applikation 1.0 10.10.2007
808 6730-0-0025 6730-803 LED-Anzeige WaveLINE ETS2 Applikation 1.0 10.10.2007
809 6730-0-0025 6730-803 LED-Anzeige WaveLINE ETS4/ETS5 Applikation 1.0 10.10.2007
810 6730-0-0025 6730-803 LED-Anzeige WaveLINE ETS4/ETS5 Applikation 1.0 10.10.2007
811 6730-0-0065 6730-896 LED-Anzeige WaveLINE ETS2 Applikation 1.0 10.10.2007
812 6730-0-0065 6730-896 LED-Anzeige WaveLINE ETS2 Applikation 1.0 10.10.2007
813 6730-0-0065 6730-896 LED-Anzeige WaveLINE ETS4/ETS5 Applikation 1.0 10.10.2007
814 6730-0-0065 6730-896 LED-Anzeige WaveLINE ETS4/ETS5 Applikation 1.0 10.10.2007
815 6730-0-0007 6730-20 LED-Anzeige WaveLINE ETS2 Applikation 1.0 10.10.2007
816 6730-0-0007 6730-20 LED-Anzeige WaveLINE ETS2 Applikation 1.0 10.10.2007
817 6730-0-0007 6730-20 LED-Anzeige WaveLINE ETS4/ETS5 Applikation 1.0 10.10.2007
818 6730-0-0007 6730-20 LED-Anzeige WaveLINE ETS4/ETS5 Applikation 1.0 10.10.2007
819 6730-0-0008 6730-21 LED-Anzeige WaveLINE ETS2 Applikation 1.0 10.10.2007
820 6730-0-0008 6730-21 LED-Anzeige WaveLINE ETS2 Applikation 1.0 10.10.2007
821 6730-0-0008 6730-21 LED-Anzeige WaveLINE ETS4/ETS5 Applikation 1.0 10.10.2007
822 6730-0-0008 6730-21 LED-Anzeige WaveLINE ETS4/ETS5 Applikation 1.0 10.10.2007
823 6730-0-0009 6730-22G LED-Anzeige WaveLINE ETS2 Applikation 1.0 10.10.2007
824 6730-0-0009 6730-22G LED-Anzeige WaveLINE ETS2 Applikation 1.0 10.10.2007
825 6730-0-0009 6730-22G LED-Anzeige WaveLINE ETS4/ETS5 Applikation 1.0 10.10.2007
826 6730-0-0009 6730-22G LED-Anzeige WaveLINE ETS4/ETS5 Applikation 1.0 10.10.2007
827 6730-0-0010 6730-24 LED-Anzeige WaveLINE ETS2 Applikation 1.0 10.10.2007
828 6730-0-0010 6730-24 LED-Anzeige WaveLINE ETS2 Applikation 1.0 10.10.2007
829 6730-0-0010 6730-24 LED-Anzeige WaveLINE ETS4/ETS5 Applikation 1.0 10.10.2007
830 6730-0-0010 6730-24 LED-Anzeige WaveLINE ETS4/ETS5 Applikation 1.0 10.10.2007
831 6730-0-0011 6730-24G LED-Anzeige WaveLINE ETS2 Applikation 1.0 10.10.2007
832 6730-0-0011 6730-24G LED-Anzeige WaveLINE ETS2 Applikation 1.0 10.10.2007
833 6730-0-0011 6730-24G LED-Anzeige WaveLINE ETS4/ETS5 Applikation 1.0 10.10.2007
834 6730-0-0011 6730-24G LED-Anzeige WaveLINE ETS4/ETS5 Applikation 1.0 10.10.2007
835 6730-0-0005 6730-260 LED-Anzeige WaveLINE ETS2 Applikation 1.0 10.10.2007
836 6730-0-0005 6730-260 LED-Anzeige WaveLINE ETS2 Applikation 1.0 10.10.2007
837 6730-0-0005 6730-260 LED-Anzeige WaveLINE ETS4/ETS5 Applikation 1.0 10.10.2007
838 6730-0-0005 6730-260 LED-Anzeige WaveLINE ETS4/ETS5 Applikation 1.0 10.10.2007
839 6730-0-0006 6730-266 LED-Anzeige WaveLINE ETS2 Applikation 1.0 10.10.2007
840 6730-0-0006 6730-266 LED-Anzeige WaveLINE ETS2 Applikation 1.0 10.10.2007
841 6730-0-0006 6730-266 LED-Anzeige WaveLINE ETS4/ETS5 Applikation 1.0 10.10.2007
842 6730-0-0006 6730-266 LED-Anzeige WaveLINE ETS4/ETS5 Applikation 1.0 10.10.2007
843 6730-0-0016 6730-83 LED-Anzeige WaveLINE ETS2 Applikation 1.0 10.10.2007
844 6730-0-0016 6730-83 LED-Anzeige WaveLINE ETS2 Applikation 1.0 10.10.2007
845 6730-0-0016 6730-83 LED-Anzeige WaveLINE ETS4/ETS5 Applikation 1.0 10.10.2007
846 6730-0-0016 6730-83 LED-Anzeige WaveLINE ETS4/ETS5 Applikation 1.0 10.10.2007
847 6730-0-0026 6730-884 LED-Anzeige WaveLINE ETS2 Applikation 1.0 10.10.2007
848 6730-0-0026 6730-884 LED-Anzeige WaveLINE ETS2 Applikation 1.0 10.10.2007
849 6730-0-0026 6730-884 LED-Anzeige WaveLINE ETS4/ETS5 Applikation 1.0 10.10.2007
850 6730-0-0026 6730-884 LED-Anzeige WaveLINE ETS4/ETS5 Applikation 1.0 10.10.2007
851 6730-0-0027 6730-885 LED-Anzeige WaveLINE ETS2 Applikation 1.0 10.10.2007
852 6730-0-0027 6730-885 LED-Anzeige WaveLINE ETS2 Applikation 1.0 10.10.2007
853 6730-0-0027 6730-885 LED-Anzeige WaveLINE ETS4/ETS5 Applikation 1.0 10.10.2007
854 6730-0-0027 6730-885 LED-Anzeige WaveLINE ETS4/ETS5 Applikation 1.0 10.10.2007
855 6730-0-0091 6730-914 LED-Anzeige WaveLINE ETS2 Applikation 1.0 10.10.2007
856 6730-0-0091 6730-914 LED-Anzeige WaveLINE ETS4/ETS5 Applikation 1.0 10.10.2007
857 6730-0-0002 6730-214 LED-Anzeige WaveLINE ETS2 Applikation 1.0 10.10.2007
858 6730-0-0002 6730-214 LED-Anzeige WaveLINE ETS2 Applikation 1.0 10.10.2007
859 6730-0-0002 6730-214 LED-Anzeige WaveLINE ETS4/ETS5 Applikation 1.0 10.10.2007
860 6730-0-0002 6730-214 LED-Anzeige WaveLINE ETS4/ETS5 Applikation 1.0 10.10.2007
861 6730-0-0001 6730-212 LED-Anzeige WaveLINE Busch-Duro 2000® SI ETS2 Applikation 1.0 10.10.2007
862 6730-0-0001 6730-212 LED-Anzeige WaveLINE Busch-Duro 2000® SI ETS2 Applikation 1.0 10.10.2007
863 6730-0-0001 6730-212 LED-Anzeige WaveLINE Busch-Duro 2000® SI ETS4/ETS5 Applikation 1.0 10.10.2007
864 6730-0-0001 6730-212 LED-Anzeige WaveLINE Busch-Duro 2000® SI ETS4/ETS5 Applikation 1.0 10.10.2007
865 6140-0-0027 6145/10 Zeitsender DCF - 2-fach ETS2 Applikation 1.0 07.08.2007
866 6146-0-0022 6146/10 Helligkeits-, Temperaturschalter - 3-fach ETS2 Applikation 1.2 07.08.2007
867 6136-0-0172 6128/10-84-101 Wochenschaltuhr Tastsensor 2-fach ETS2 Applikation 1.0 08.03.2007
868 6136-0-0172 6128/10-84-101 Wochenschaltuhr Tastsensor 2-fach Zusatzsoftware: Power-Projekt Plugin 1.0 08.03.2007
869 6136-0-0172 6128/10-84-101 Wochenschaltuhr Tastsensor 2-fach ETS4/ETS5 Applikation 1.0 08.03.2007
870 6136-0-0169 6128/10-81-101 Wochenschaltuhr Tastsensor 2-fach ETS2 Applikation 1.0 08.03.2007
871 6136-0-0169 6128/10-81-101 Wochenschaltuhr Tastsensor 2-fach Zusatzsoftware: Power-Projekt Plugin 1.0 08.03.2007
872 6136-0-0169 6128/10-81-101 Wochenschaltuhr Tastsensor 2-fach ETS4/ETS5 Applikation 1.0 08.03.2007
873 6136-0-0170 6128/10-82-101 Wochenschaltuhr Tastsensor 2-fach ETS2 Applikation 1.0 08.03.2007
874 6136-0-0170 6128/10-82-101 Wochenschaltuhr Tastsensor 2-fach Zusatzsoftware: Power-Projekt Plugin 1.0 08.03.2007
875 6136-0-0170 6128/10-82-101 Wochenschaltuhr Tastsensor 2-fach ETS4/ETS5 Applikation 1.0 08.03.2007
876 6136-0-0179 6128/10-866-101 Wochenschaltuhr Tastsensor 2-fach ETS2 Applikation 1.0 08.03.2007
877 6136-0-0179 6128/10-866-101 Wochenschaltuhr Tastsensor 2-fach Zusatzsoftware: Power-Projekt Plugin 1.0 08.03.2007
878 6136-0-0179 6128/10-866-101 Wochenschaltuhr Tastsensor 2-fach ETS4/ETS5 Applikation 1.0 08.03.2007
879 6136-0-0171 6128/10-83-101 Wochenschaltuhr Tastsensor 2-fach ETS2 Applikation 1.0 08.03.2007
880 6136-0-0171 6128/10-83-101 Wochenschaltuhr Tastsensor 2-fach Zusatzsoftware: Power-Projekt Plugin 1.0 08.03.2007
881 6136-0-0171 6128/10-83-101 Wochenschaltuhr Tastsensor 2-fach ETS4/ETS5 Applikation 1.0 08.03.2007
882 6136-0-0191 6128/10-803-101 Wochenschaltuhr Tastsensor 2-fach ETS2 Applikation 1.0 08.03.2007
883 6136-0-0191 6128/10-803-101 Wochenschaltuhr Tastsensor 2-fach Zusatzsoftware: Power-Projekt Plugin 1.0 08.03.2007
884 6136-0-0191 6128/10-803-101 Wochenschaltuhr Tastsensor 2-fach ETS4/ETS5 Applikation 1.0 08.03.2007
885 6136-0-0194 6128/10-884-101 Wochenschaltuhr Tastsensor 2-fach future® linear ETS2 Applikation 1.0 08.03.2007
886 6136-0-0194 6128/10-884-101 Wochenschaltuhr Tastsensor 2-fach future® linear Zusatzsoftware: Power-Projekt Plugin 1.0 08.03.2007
887 6136-0-0194 6128/10-884-101 Wochenschaltuhr Tastsensor 2-fach future® linear ETS4/ETS5 Applikation 1.0 08.03.2007
888 6136-0-0193 6128/10-885-101 Wochenschaltuhr Tastsensor 2-fach future® linear ETS2 Applikation 1.0 08.03.2007
889 6136-0-0193 6128/10-885-101 Wochenschaltuhr Tastsensor 2-fach future® linear Zusatzsoftware: Power-Projekt Plugin 1.0 08.03.2007
890 6136-0-0193 6128/10-885-101 Wochenschaltuhr Tastsensor 2-fach future® linear ETS4/ETS5 Applikation 1.0 08.03.2007
891 6135-0-0129 6129-82-101 Infrarotschnittstelle mit Tastsensor - 3-fach, 5-kanalig ETS2 Applikation 1.2 17.11.2006
892 6135-0-0129 6129-82-101 Infrarotschnittstelle mit Tastsensor - 3-fach, 5-kanalig ETS2 Applikation 1.2 17.11.2006
893 6135-0-0129 6129-82-101 Infrarotschnittstelle mit Tastsensor - 3-fach, 5-kanalig ETS4/ETS5 Applikation 1.2 17.11.2006
894 6135-0-0129 6129-82-101 Infrarotschnittstelle mit Tastsensor - 3-fach, 5-kanalig ETS4/ETS5 Applikation 1.2 17.11.2006
895 6135-0-0131 6129-84-101 Infrarotschnittstelle mit Tastsensor - 3-fach, 5-kanalig ETS2 Applikation 1.2 17.11.2006
896 6135-0-0131 6129-84-101 Infrarotschnittstelle mit Tastsensor - 3-fach, 5-kanalig ETS2 Applikation 1.2 17.11.2006
897 6135-0-0131 6129-84-101 Infrarotschnittstelle mit Tastsensor - 3-fach, 5-kanalig ETS4/ETS5 Applikation 1.2 17.11.2006
898 6135-0-0131 6129-84-101 Infrarotschnittstelle mit Tastsensor - 3-fach, 5-kanalig ETS4/ETS5 Applikation 1.2 17.11.2006
899 6135-0-0128 6129-81-101 Infrarotschnittstelle mit Tastsensor future® linear - 3-fach, 5-kanalig ETS2 Applikation 1.2 17.11.2006
900 6135-0-0128 6129-81-101 Infrarotschnittstelle mit Tastsensor future® linear - 3-fach, 5-kanalig ETS2 Applikation 1.2 17.11.2006
901 6135-0-0128 6129-81-101 Infrarotschnittstelle mit Tastsensor future® linear - 3-fach, 5-kanalig ETS4/ETS5 Applikation 1.2 17.11.2006
902 6135-0-0128 6129-81-101 Infrarotschnittstelle mit Tastsensor future® linear - 3-fach, 5-kanalig ETS4/ETS5 Applikation 1.2 17.11.2006
903 6135-0-0130 6129-83-101 Infrarotschnittstelle mit Tastsensor future® linear - 3-fach, 5-kanalig ETS2 Applikation 1.2 17.11.2006
904 6135-0-0130 6129-83-101 Infrarotschnittstelle mit Tastsensor future® linear - 3-fach, 5-kanalig ETS2 Applikation 1.2 17.11.2006
905 6135-0-0130 6129-83-101 Infrarotschnittstelle mit Tastsensor future® linear - 3-fach, 5-kanalig ETS4/ETS5 Applikation 1.2 17.11.2006
906 6135-0-0130 6129-83-101 Infrarotschnittstelle mit Tastsensor future® linear - 3-fach, 5-kanalig ETS4/ETS5 Applikation 1.2 17.11.2006
907 6135-0-0141 6129-884-101 Infrarotschnittstelle mit Tastsensor future® linear - 3-fach, 5-kanalig ETS2 Applikation 1.2 17.11.2006
908 6135-0-0141 6129-884-101 Infrarotschnittstelle mit Tastsensor future® linear - 3-fach, 5-kanalig ETS2 Applikation 1.2 17.11.2006
909 6135-0-0141 6129-884-101 Infrarotschnittstelle mit Tastsensor future® linear - 3-fach, 5-kanalig ETS4/ETS5 Applikation 1.2 17.11.2006
910 6135-0-0141 6129-884-101 Infrarotschnittstelle mit Tastsensor future® linear - 3-fach, 5-kanalig ETS4/ETS5 Applikation 1.2 17.11.2006
911 6135-0-0155 6129-885-101 Infrarotschnittstelle mit Tastsensor future® linear - 3-fach, 5-kanalig ETS2 Applikation 1.2 17.11.2006
912 6135-0-0155 6129-885-101 Infrarotschnittstelle mit Tastsensor future® linear - 3-fach, 5-kanalig ETS2 Applikation 1.2 17.11.2006
913 6135-0-0155 6129-885-101 Infrarotschnittstelle mit Tastsensor future® linear - 3-fach, 5-kanalig ETS4/ETS5 Applikation 1.2 17.11.2006
914 6135-0-0155 6129-885-101 Infrarotschnittstelle mit Tastsensor future® linear - 3-fach, 5-kanalig ETS4/ETS5 Applikation 1.2 17.11.2006
915 6135-0-0138 6129-866-101 Infrarotschnittstelle mit Tastsensor pur edelstahl - 3-fach, 5-kanalig ETS2 Applikation 1.2 17.11.2006
916 6135-0-0138 6129-866-101 Infrarotschnittstelle mit Tastsensor pur edelstahl - 3-fach, 5-kanalig ETS2 Applikation 1.2 17.11.2006
917 6135-0-0138 6129-866-101 Infrarotschnittstelle mit Tastsensor pur edelstahl - 3-fach, 5-kanalig ETS4/ETS5 Applikation 1.2 17.11.2006
918 6135-0-0138 6129-866-101 Infrarotschnittstelle mit Tastsensor pur edelstahl - 3-fach, 5-kanalig ETS4/ETS5 Applikation 1.2 17.11.2006
919 6134-0-0220 6124-82-101 Raumtemperaturregler - Heiz-/Kühlbetrieb ETS2 Applikation 4.2 25.07.2006
920 6134-0-0220 6124-82-101 Raumtemperaturregler - Heiz-/Kühlbetrieb ETS2 Applikation 4.2 25.07.2006
921 6134-0-0220 6124-82-101 Raumtemperaturregler - Heiz-/Kühlbetrieb ETS4/ETS5 Applikation 4.2 25.07.2006
922 6134-0-0220 6124-82-101 Raumtemperaturregler - Heiz-/Kühlbetrieb ETS4/ETS5 Applikation 4.2 25.07.2006
923 6134-0-0222 6124-84-101 Raumtemperaturregler - Heiz-/Kühlbetrieb ETS2 Applikation 4.2 25.07.2006
924 6134-0-0222 6124-84-101 Raumtemperaturregler - Heiz-/Kühlbetrieb ETS2 Applikation 4.2 25.07.2006
925 6134-0-0222 6124-84-101 Raumtemperaturregler - Heiz-/Kühlbetrieb ETS4/ETS5 Applikation 4.2 25.07.2006
926 6134-0-0222 6124-84-101 Raumtemperaturregler - Heiz-/Kühlbetrieb ETS4/ETS5 Applikation 4.2 25.07.2006
927 6134-0-0234 6124-803-101 Raumtemperaturregler - Heiz-/Kühlbetrieb ETS2 Applikation 4.2 25.07.2006
928 6134-0-0234 6124-803-101 Raumtemperaturregler - Heiz-/Kühlbetrieb ETS2 Applikation 4.2 25.07.2006
929 6134-0-0234 6124-803-101 Raumtemperaturregler - Heiz-/Kühlbetrieb ETS4/ETS5 Applikation 4.2 25.07.2006
930 6134-0-0234 6124-803-101 Raumtemperaturregler - Heiz-/Kühlbetrieb ETS4/ETS5 Applikation 4.2 25.07.2006
931 6115-0-0167 6125-84-101 Tastsensor - 1-fach Tastsensor ETS2 Applikation 1.1 25.07.2006
932 6115-0-0167 6125-84-101 Tastsensor - 1-fach Tastsensor ETS2 Applikation 1.1 25.07.2006
933 6115-0-0167 6125-84-101 Tastsensor - 1-fach Tastsensor ETS4/ETS5 Applikation 1.1 25.07.2006
934 6115-0-0167 6125-84-101 Tastsensor - 1-fach Tastsensor ETS4/ETS5 Applikation 1.1 25.07.2006
935 6116-0-0157 6126-84-101 Tastsensor - 2-fach Tastsensor ETS2 Applikation 1.1 25.07.2006
936 6116-0-0157 6126-84-101 Tastsensor - 2-fach Tastsensor ETS2 Applikation 1.1 25.07.2006
937 6116-0-0157 6126-84-101 Tastsensor - 2-fach Tastsensor ETS4/ETS5 Applikation 1.1 25.07.2006
938 6116-0-0157 6126-84-101 Tastsensor - 2-fach Tastsensor ETS4/ETS5 Applikation 1.1 25.07.2006
939 6117-0-0168 6127-84-101 Tastsensor - 4-fach Tastsensor ETS2 Applikation 1.1 25.07.2006
940 6117-0-0168 6127-84-101 Tastsensor - 4-fach Tastsensor ETS2 Applikation 1.1 25.07.2006
941 6117-0-0168 6127-84-101 Tastsensor - 4-fach Tastsensor ETS4/ETS5 Applikation 1.1 25.07.2006
942 6117-0-0168 6127-84-101 Tastsensor - 4-fach Tastsensor ETS4/ETS5 Applikation 1.1 25.07.2006
943 6134-0-0211 6128-84-101 Raumtemperaturregler mit Tastsensor - 2-fach mit Heiz-/Kühlbetrieb ETS2 Applikation 1.2 25.07.2006
944 6134-0-0211 6128-84-101 Raumtemperaturregler mit Tastsensor - 2-fach mit Heiz-/Kühlbetrieb ETS4/ETS5 Applikation 1.2 25.07.2006
945 6117-0-0179 6127 MF-84-101 Multifunktionstastsensor - 4-fach Tastsensor ETS2 Applikation 1.1 25.07.2006
946 6117-0-0179 6127 MF-84-101 Multifunktionstastsensor - 4-fach Tastsensor ETS2 Applikation 1.1 25.07.2006
947 6117-0-0179 6127 MF-84-101 Multifunktionstastsensor - 4-fach Tastsensor ETS4/ETS5 Applikation 1.1 25.07.2006
948 6117-0-0179 6127 MF-84-101 Multifunktionstastsensor - 4-fach Tastsensor ETS4/ETS5 Applikation 1.1 25.07.2006
949 6115-0-0164 6125-81-101 Tastsensor - 1-fach Tastsensor ETS2 Applikation 1.1 25.07.2006
950 6115-0-0164 6125-81-101 Tastsensor - 1-fach Tastsensor ETS2 Applikation 1.1 25.07.2006
951 6115-0-0164 6125-81-101 Tastsensor - 1-fach Tastsensor ETS4/ETS5 Applikation 1.1 25.07.2006
952 6115-0-0164 6125-81-101 Tastsensor - 1-fach Tastsensor ETS4/ETS5 Applikation 1.1 25.07.2006
953 6115-0-0165 6125-82-101 Tastsensor - 1-fach Tastsensor ETS2 Applikation 1.1 25.07.2006
954 6115-0-0165 6125-82-101 Tastsensor - 1-fach Tastsensor ETS2 Applikation 1.1 25.07.2006
955 6115-0-0165 6125-82-101 Tastsensor - 1-fach Tastsensor ETS4/ETS5 Applikation 1.1 25.07.2006
956 6115-0-0165 6125-82-101 Tastsensor - 1-fach Tastsensor ETS4/ETS5 Applikation 1.1 25.07.2006
957 6116-0-0154 6126-81-101 Tastsensor - 2-fach Tastsensor ETS2 Applikation 1.1 25.07.2006
958 6116-0-0154 6126-81-101 Tastsensor - 2-fach Tastsensor ETS2 Applikation 1.1 25.07.2006
959 6116-0-0154 6126-81-101 Tastsensor - 2-fach Tastsensor ETS4/ETS5 Applikation 1.1 25.07.2006
960 6116-0-0154 6126-81-101 Tastsensor - 2-fach Tastsensor ETS4/ETS5 Applikation 1.1 25.07.2006
961 6116-0-0155 6126-82-101 Tastsensor - 2-fach Tastsensor ETS2 Applikation 1.1 25.07.2006
962 6116-0-0155 6126-82-101 Tastsensor - 2-fach Tastsensor ETS2 Applikation 1.1 25.07.2006
963 6116-0-0155 6126-82-101 Tastsensor - 2-fach Tastsensor ETS4/ETS5 Applikation 1.1 25.07.2006
964 6116-0-0155 6126-82-101 Tastsensor - 2-fach Tastsensor ETS4/ETS5 Applikation 1.1 25.07.2006
965 6117-0-0165 6127-81-101 Tastsensor - 4-fach Tastsensor ETS2 Applikation 1.1 25.07.2006
966 6117-0-0165 6127-81-101 Tastsensor - 4-fach Tastsensor ETS2 Applikation 1.1 25.07.2006
967 6117-0-0165 6127-81-101 Tastsensor - 4-fach Tastsensor ETS4/ETS5 Applikation 1.1 25.07.2006
968 6117-0-0165 6127-81-101 Tastsensor - 4-fach Tastsensor ETS4/ETS5 Applikation 1.1 25.07.2006
969 6117-0-0166 6127-82-101 Tastsensor - 4-fach Tastsensor ETS2 Applikation 1.1 25.07.2006
970 6117-0-0166 6127-82-101 Tastsensor - 4-fach Tastsensor ETS2 Applikation 1.1 25.07.2006
971 6117-0-0166 6127-82-101 Tastsensor - 4-fach Tastsensor ETS4/ETS5 Applikation 1.1 25.07.2006
972 6117-0-0166 6127-82-101 Tastsensor - 4-fach Tastsensor ETS4/ETS5 Applikation 1.1 25.07.2006
973 6117-0-0176 6127 MF-81-101 Multifunktionstastsensor - 4-fach Tastsensor ETS2 Applikation 1.1 25.07.2006
974 6117-0-0176 6127 MF-81-101 Multifunktionstastsensor - 4-fach Tastsensor ETS2 Applikation 1.1 25.07.2006
975 6117-0-0176 6127 MF-81-101 Multifunktionstastsensor - 4-fach Tastsensor ETS4/ETS5 Applikation 1.1 25.07.2006
976 6117-0-0176 6127 MF-81-101 Multifunktionstastsensor - 4-fach Tastsensor ETS4/ETS5 Applikation 1.1 25.07.2006
977 6117-0-0177 6127 MF-82-101 Multifunktionstastsensor - 4-fach Tastsensor ETS2 Applikation 1.1 25.07.2006
978 6117-0-0177 6127 MF-82-101 Multifunktionstastsensor - 4-fach Tastsensor ETS2 Applikation 1.1 25.07.2006
979 6117-0-0177 6127 MF-82-101 Multifunktionstastsensor - 4-fach Tastsensor ETS4/ETS5 Applikation 1.1 25.07.2006
980 6117-0-0177 6127 MF-82-101 Multifunktionstastsensor - 4-fach Tastsensor ETS4/ETS5 Applikation 1.1 25.07.2006
981 6134-0-0219 6124-81-101 Raumtemperaturregler - Heiz-/Kühlbetrieb ETS2 Applikation 4.2 25.07.2006
982 6134-0-0219 6124-81-101 Raumtemperaturregler - Heiz-/Kühlbetrieb ETS2 Applikation 4.2 25.07.2006
983 6134-0-0219 6124-81-101 Raumtemperaturregler - Heiz-/Kühlbetrieb ETS4/ETS5 Applikation 4.2 25.07.2006
984 6134-0-0219 6124-81-101 Raumtemperaturregler - Heiz-/Kühlbetrieb ETS4/ETS5 Applikation 4.2 25.07.2006
985 6134-0-0208 6128-81-101 Raumtemperaturregler mit Tastsensor - 2-fach mit Heiz-/Kühlbetrieb ETS2 Applikation 1.2 25.07.2006
986 6134-0-0208 6128-81-101 Raumtemperaturregler mit Tastsensor - 2-fach mit Heiz-/Kühlbetrieb ETS4/ETS5 Applikation 1.2 25.07.2006
987 6134-0-0209 6128-82-101 Raumtemperaturregler mit Tastsensor - 2-fach mit Heiz-/Kühlbetrieb ETS2 Applikation 1.2 25.07.2006
988 6134-0-0209 6128-82-101 Raumtemperaturregler mit Tastsensor - 2-fach mit Heiz-/Kühlbetrieb ETS4/ETS5 Applikation 1.2 25.07.2006
989 6115-0-0174 6125-866-101 Tastsensor - 1-fach Tastsensor ETS2 Applikation 1.1 25.07.2006
990 6115-0-0174 6125-866-101 Tastsensor - 1-fach Tastsensor ETS2 Applikation 1.1 25.07.2006
991 6115-0-0174 6125-866-101 Tastsensor - 1-fach Tastsensor ETS4/ETS5 Applikation 1.1 25.07.2006
992 6115-0-0174 6125-866-101 Tastsensor - 1-fach Tastsensor ETS4/ETS5 Applikation 1.1 25.07.2006
993 6116-0-0164 6126-866-101 Tastsensor - 2-fach Tastsensor ETS2 Applikation 1.1 25.07.2006
994 6116-0-0164 6126-866-101 Tastsensor - 2-fach Tastsensor ETS2 Applikation 1.1 25.07.2006
995 6116-0-0164 6126-866-101 Tastsensor - 2-fach Tastsensor ETS4/ETS5 Applikation 1.1 25.07.2006